<?xml version="1.0" encoding="UTF-8"?>
<gpx creator="Garmin Connect" version="1.1"
  xsi:schemaLocation="http://www.topografix.com/GPX/1/1 http://www.topografix.com/GPX/11.xsd"
  xmlns:ns3="http://www.garmin.com/xmlschemas/TrackPointExtension/v1"
  xmlns="http://www.topografix.com/GPX/1/1"
  xmlns:xsi="http://www.w3.org/2001/XMLSchema-instance" xmlns:ns2="http://www.garmin.com/xmlschemas/GpxExtensions/v3">
  <metadata>
    <name>S - Dag 2</name>
    <link href="connect.garmin.com">
      <text>Garmin Connect</text>
    </link>
    <time>2025-01-27T10:07:04.000Z</time>
  </metadata>
  <wpt lat="58.88451547865638" lon="16.32135043874474">
    <ele>0.0</ele>
    <name>Watermeer</name>
    <type>WATER</type>
  </wpt>
  <wpt lat="58.88366679845291" lon="16.32387883985548">
    <ele>0.0</ele>
    <name>Waterbron</name>
    <type>WATER</type>
  </wpt>
  <wpt lat="58.87662846504413" lon="16.35036028521082">
    <ele>0.0</ele>
    <name>Water</name>
    <type>WATER</type>
  </wpt>
  <wpt lat="58.87639631481775" lon="16.35095339894974">
    <ele>0.0</ele>
    <name>Etappe 29</name>
    <type>TRANSITION</type>
  </wpt>
  <wpt lat="58.84870598092675" lon="16.32465094327927">
    <ele>0.0</ele>
    <name>Watermeer</name>
    <type>WATER</type>
  </wpt>
  <wpt lat="58.85187693871558" lon="16.33183096535504">
    <ele>0.0</ele>
    <name>Waterbron</name>
    <type>WATER</type>
  </wpt>
  <wpt lat="58.83807935596176" lon="16.32855311815455">
    <ele>0.0</ele>
    <name>Waterbron</name>
    <type>WATER</type>
  </wpt>
  <wpt lat="58.83596950312627" lon="16.33542462011497">
    <ele>0.0</ele>
    <name>Rustplaats</name>
    <type>REST AREA</type>
  </wpt>
  <wpt lat="58.834886830827" lon="16.34315195767692">
    <ele>0.0</ele>
    <name>Watermeer</name>
    <type>WATER</type>
  </wpt>
  <wpt lat="58.83236863819764" lon="16.34783091510041">
    <ele>0.0</ele>
    <name>Rustplaats</name>
    <type>REST AREA</type>
  </wpt>
  <wpt lat="58.82981971307535" lon="16.34999789951869">
    <ele>0.0</ele>
    <name>Rustplaats</name>
    <type>REST AREA</type>
  </wpt>
  <wpt lat="58.82476884381677" lon="16.3422444002569">
    <ele>0.0</ele>
    <name>Etappe 30</name>
    <type>TRANSITION</type>
  </wpt>
  <wpt lat="58.81509862210336" lon="16.30520369755263">
    <ele>0.0</ele>
    <name>Water</name>
    <type>WATER</type>
  </wpt>
  <wpt lat="58.8107316954033" lon="16.31091352433026">
    <ele>0.0</ele>
    <name>Watermeer</name>
    <type>WATER</type>
  </wpt>
  <wpt lat="58.81050402597239" lon="16.31118827709407">
    <ele>0.0</ele>
    <name>Kamp dag 2</name>
    <type>CAMPSITE</type>
  </wpt>
  <trk>
    <name>S - Dag 2</name>
    <trkseg>
      <trkpt lat="58.89640864916146" lon="16.289996383711696">
        <ele>54.77</ele>
        <time>2025-01-27T10:07:04.000Z</time>
      </trkpt>
      <trkpt lat="58.89640194363892" lon="16.289996970444918">
        <ele>54.81</ele>
        <time>2025-01-27T10:07:04.001Z</time>
      </trkpt>
      <trkpt lat="58.89626707881689" lon="16.290397038683295">
        <ele>55.16</ele>
        <time>2025-01-27T10:07:04.035Z</time>
      </trkpt>
      <trkpt lat="58.896132968366146" lon="16.290794927626848">
        <ele>55.58</ele>
        <time>2025-01-27T10:07:04.102Z</time>
      </trkpt>
      <trkpt lat="58.89601193368435" lon="16.29101294092834">
        <ele>55.99</ele>
        <time>2025-01-27T10:07:04.191Z</time>
      </trkpt>
      <trkpt lat="58.895999947562814" lon="16.29148794338107">
        <ele>56.08</ele>
        <time>2025-01-27T10:07:04.313Z</time>
      </trkpt>
      <trkpt lat="58.89585410244763" lon="16.29181425087154">
        <ele>56.11</ele>
        <time>2025-01-27T10:07:04.465Z</time>
      </trkpt>
      <trkpt lat="58.8957089278847" lon="16.292138965800405">
        <ele>55.99</ele>
        <time>2025-01-27T10:07:04.646Z</time>
      </trkpt>
      <trkpt lat="58.895612955093384" lon="16.29245295189321">
        <ele>55.87</ele>
        <time>2025-01-27T10:07:04.853Z</time>
      </trkpt>
      <trkpt lat="58.895417992025614" lon="16.292718993499875">
        <ele>55.86</ele>
        <time>2025-01-27T10:07:05.091Z</time>
      </trkpt>
      <trkpt lat="58.89531564898789" lon="16.292989142239094">
        <ele>55.87</ele>
        <time>2025-01-27T10:07:05.353Z</time>
      </trkpt>
      <trkpt lat="58.89521397650242" lon="16.293257949873805">
        <ele>55.93</ele>
        <time>2025-01-27T10:07:05.638Z</time>
      </trkpt>
      <trkpt lat="58.89505195431411" lon="16.293474957346916">
        <ele>56.11</ele>
        <time>2025-01-27T10:07:05.949Z</time>
      </trkpt>
      <trkpt lat="58.89494399540126" lon="16.29348292015493">
        <ele>56.33</ele>
        <time>2025-01-27T10:07:06.274Z</time>
      </trkpt>
      <trkpt lat="58.894798988476396" lon="16.29357093013823">
        <ele>56.62</ele>
        <time>2025-01-27T10:07:06.620Z</time>
      </trkpt>
      <trkpt lat="58.89476495794952" lon="16.293748961761594">
        <ele>57.13</ele>
        <time>2025-01-27T10:07:06.979Z</time>
      </trkpt>
      <trkpt lat="58.89480007812381" lon="16.29416026175022">
        <ele>57.95</ele>
        <time>2025-01-27T10:07:07.367Z</time>
      </trkpt>
      <trkpt lat="58.8948351982981" lon="16.29457164555788">
        <ele>58.9</ele>
        <time>2025-01-27T10:07:07.784Z</time>
      </trkpt>
      <trkpt lat="58.89486998319626" lon="16.294978922232985">
        <ele>60.0</ele>
        <time>2025-01-27T10:07:08.229Z</time>
      </trkpt>
      <trkpt lat="58.89493393711746" lon="16.29509299993515">
        <ele>60.94</ele>
        <time>2025-01-27T10:07:08.686Z</time>
      </trkpt>
      <trkpt lat="58.89495799317956" lon="16.29545694217086">
        <ele>61.98</ele>
        <time>2025-01-27T10:07:09.168Z</time>
      </trkpt>
      <trkpt lat="58.894854644313455" lon="16.29573069512844">
        <ele>63.11</ele>
        <time>2025-01-27T10:07:09.674Z</time>
      </trkpt>
      <trkpt lat="58.8947519659996" lon="16.296002939343452">
        <ele>64.11</ele>
        <time>2025-01-27T10:07:10.203Z</time>
      </trkpt>
      <trkpt lat="58.894757917150855" lon="16.296241991221905">
        <ele>64.93</ele>
        <time>2025-01-27T10:07:10.748Z</time>
      </trkpt>
      <trkpt lat="58.89461693353951" lon="16.29666293039918">
        <ele>65.76</ele>
        <time>2025-01-27T10:07:11.328Z</time>
      </trkpt>
      <trkpt lat="58.89441350474954" lon="16.29701631143689">
        <ele>66.31</ele>
        <time>2025-01-27T10:07:11.945Z</time>
      </trkpt>
      <trkpt lat="58.89421099796891" lon="16.297367932274938">
        <ele>66.78</ele>
        <time>2025-01-27T10:07:12.598Z</time>
      </trkpt>
      <trkpt lat="58.894157940521836" lon="16.297686947509646">
        <ele>67.14</ele>
        <time>2025-01-27T10:07:13.274Z</time>
      </trkpt>
      <trkpt lat="58.89403497800231" lon="16.2978689186275">
        <ele>67.36</ele>
        <time>2025-01-27T10:07:13.971Z</time>
      </trkpt>
      <trkpt lat="58.893743539229035" lon="16.29798861220479">
        <ele>67.53</ele>
        <time>2025-01-27T10:07:14.708Z</time>
      </trkpt>
      <trkpt lat="58.89345293864608" lon="16.298107970505953">
        <ele>67.66</ele>
        <time>2025-01-27T10:07:15.485Z</time>
      </trkpt>
      <trkpt lat="58.89332293532789" lon="16.298653967678547">
        <ele>67.53</ele>
        <time>2025-01-27T10:07:16.303Z</time>
      </trkpt>
      <trkpt lat="58.89315898530185" lon="16.2988359387964">
        <ele>67.43</ele>
        <time>2025-01-27T10:07:17.146Z</time>
      </trkpt>
      <trkpt lat="58.893081955611706" lon="16.299143973737955">
        <ele>67.14</ele>
        <time>2025-01-27T10:07:18.013Z</time>
      </trkpt>
      <trkpt lat="58.89311196282506" lon="16.299359975382686">
        <ele>66.84</ele>
        <time>2025-01-27T10:07:18.896Z</time>
      </trkpt>
      <trkpt lat="58.89299662783742" lon="16.29981075413525">
        <ele>66.45</ele>
        <time>2025-01-27T10:07:19.813Z</time>
      </trkpt>
      <trkpt lat="58.89288196340203" lon="16.300258934497833">
        <ele>66.04</ele>
        <time>2025-01-27T10:07:20.765Z</time>
      </trkpt>
      <trkpt lat="58.892712984234095" lon="16.300705689936876">
        <ele>65.59</ele>
        <time>2025-01-27T10:07:21.755Z</time>
      </trkpt>
      <trkpt lat="58.892544927075505" lon="16.301149930804968">
        <ele>65.15</ele>
        <time>2025-01-27T10:07:22.783Z</time>
      </trkpt>
      <trkpt lat="58.89231978915632" lon="16.30148336291313">
        <ele>64.7</ele>
        <time>2025-01-27T10:07:23.849Z</time>
      </trkpt>
      <trkpt lat="58.89209465123713" lon="16.301816711202264">
        <ele>64.39</ele>
        <time>2025-01-27T10:07:24.953Z</time>
      </trkpt>
      <trkpt lat="58.89187093824148" lon="16.302147964015603">
        <ele>64.18</ele>
        <time>2025-01-27T10:07:26.095Z</time>
      </trkpt>
      <trkpt lat="58.89174437150359" lon="16.302627325057983">
        <ele>64.02</ele>
        <time>2025-01-27T10:07:27.274Z</time>
      </trkpt>
      <trkpt lat="58.89161772094667" lon="16.303106769919395">
        <ele>63.86</ele>
        <time>2025-01-27T10:07:28.490Z</time>
      </trkpt>
      <trkpt lat="58.89149107038975" lon="16.303586214780807">
        <ele>63.74</ele>
        <time>2025-01-27T10:07:29.743Z</time>
      </trkpt>
      <trkpt lat="58.8913659285754" lon="16.304059959948063">
        <ele>63.61</ele>
        <time>2025-01-27T10:07:31.033Z</time>
      </trkpt>
      <trkpt lat="58.891238272190094" lon="16.30446874536574">
        <ele>63.5</ele>
        <time>2025-01-27T10:07:32.356Z</time>
      </trkpt>
      <trkpt lat="58.89111061580479" lon="16.304877614602447">
        <ele>63.41</ele>
        <time>2025-01-27T10:07:33.712Z</time>
      </trkpt>
      <trkpt lat="58.89098396524787" lon="16.305282963439822">
        <ele>63.31</ele>
        <time>2025-01-27T10:07:35.101Z</time>
      </trkpt>
      <trkpt lat="58.89087567105889" lon="16.305545149371028">
        <ele>63.16</ele>
        <time>2025-01-27T10:07:36.513Z</time>
      </trkpt>
      <trkpt lat="58.89076796360314" lon="16.305805994197726">
        <ele>63.0</ele>
        <time>2025-01-27T10:07:37.948Z</time>
      </trkpt>
      <trkpt lat="58.89060191810131" lon="16.305982936173677">
        <ele>62.91</ele>
        <time>2025-01-27T10:07:39.409Z</time>
      </trkpt>
      <trkpt lat="58.89048113487661" lon="16.306301280856133">
        <ele>62.81</ele>
        <time>2025-01-27T10:07:40.897Z</time>
      </trkpt>
      <trkpt lat="58.89036093838513" lon="16.306617949157953">
        <ele>62.7</ele>
        <time>2025-01-27T10:07:42.412Z</time>
      </trkpt>
      <trkpt lat="58.890239987522364" lon="16.307052969932556">
        <ele>62.6</ele>
        <time>2025-01-27T10:07:43.961Z</time>
      </trkpt>
      <trkpt lat="58.890285920351744" lon="16.307334937155247">
        <ele>62.55</ele>
        <time>2025-01-27T10:07:45.531Z</time>
      </trkpt>
      <trkpt lat="58.890418941155076" lon="16.30747097544372">
        <ele>62.51</ele>
        <time>2025-01-27T10:07:47.121Z</time>
      </trkpt>
      <trkpt lat="58.890475099906325" lon="16.307777920737863">
        <ele>62.4</ele>
        <time>2025-01-27T10:07:48.733Z</time>
      </trkpt>
      <trkpt lat="58.89053092338145" lon="16.308082938194275">
        <ele>62.3</ele>
        <time>2025-01-27T10:07:50.368Z</time>
      </trkpt>
      <trkpt lat="58.890547938644886" lon="16.30850094370544">
        <ele>62.1</ele>
        <time>2025-01-27T10:07:52.032Z</time>
      </trkpt>
      <trkpt lat="58.89054223895073" lon="16.30890998058021">
        <ele>61.87</ele>
        <time>2025-01-27T10:07:53.724Z</time>
      </trkpt>
      <trkpt lat="58.890536623075604" lon="16.309319017454982">
        <ele>61.61</ele>
        <time>2025-01-27T10:07:55.444Z</time>
      </trkpt>
      <trkpt lat="58.89053092338145" lon="16.3097239471972">
        <ele>61.32</ele>
        <time>2025-01-27T10:07:57.193Z</time>
      </trkpt>
      <trkpt lat="58.89051591977477" lon="16.310010943561792">
        <ele>60.99</ele>
        <time>2025-01-27T10:07:58.961Z</time>
      </trkpt>
      <trkpt lat="58.8905004132539" lon="16.310315458104014">
        <ele>60.66</ele>
        <time>2025-01-27T10:08:00.751Z</time>
      </trkpt>
      <trkpt lat="58.89048499055207" lon="16.310617960989475">
        <ele>60.28</ele>
        <time>2025-01-27T10:08:02.562Z</time>
      </trkpt>
      <trkpt lat="58.89059294946492" lon="16.31080294959247">
        <ele>59.92</ele>
        <time>2025-01-27T10:08:04.392Z</time>
      </trkpt>
      <trkpt lat="58.89058037661016" lon="16.311230845749378">
        <ele>59.55</ele>
        <time>2025-01-27T10:08:06.252Z</time>
      </trkpt>
      <trkpt lat="58.890567971393466" lon="16.31165597587824">
        <ele>59.14</ele>
        <time>2025-01-27T10:08:08.141Z</time>
      </trkpt>
      <trkpt lat="58.890509800985456" lon="16.312087811529636">
        <ele>58.79</ele>
        <time>2025-01-27T10:08:10.061Z</time>
      </trkpt>
      <trkpt lat="58.89045196585357" lon="16.31251696497202">
        <ele>58.4</ele>
        <time>2025-01-27T10:08:12.012Z</time>
      </trkpt>
      <trkpt lat="58.890343671664596" lon="16.312799183651805">
        <ele>58.12</ele>
        <time>2025-01-27T10:08:13.987Z</time>
      </trkpt>
      <trkpt lat="58.89023596420884" lon="16.31307997740805">
        <ele>57.83</ele>
        <time>2025-01-27T10:08:15.986Z</time>
      </trkpt>
      <trkpt lat="58.890065057203174" lon="16.31337409839034">
        <ele>57.62</ele>
        <time>2025-01-27T10:08:18.016Z</time>
      </trkpt>
      <trkpt lat="58.88989498838782" lon="16.313666962087154">
        <ele>57.42</ele>
        <time>2025-01-27T10:08:20.076Z</time>
      </trkpt>
      <trkpt lat="58.88962400145829" lon="16.31384021602571">
        <ele>57.36</ele>
        <time>2025-01-27T10:08:22.174Z</time>
      </trkpt>
      <trkpt lat="58.8893539365381" lon="16.314012967050076">
        <ele>57.31</ele>
        <time>2025-01-27T10:08:24.310Z</time>
      </trkpt>
      <trkpt lat="58.889104994013906" lon="16.314374981448054">
        <ele>57.28</ele>
        <time>2025-01-27T10:08:26.488Z</time>
      </trkpt>
      <trkpt lat="58.88891950249672" lon="16.314778486266732">
        <ele>57.11</ele>
        <time>2025-01-27T10:08:28.703Z</time>
      </trkpt>
      <trkpt lat="58.88873493298888" lon="16.31517997942865">
        <ele>56.91</ele>
        <time>2025-01-27T10:08:30.956Z</time>
      </trkpt>
      <trkpt lat="58.888501999899745" lon="16.315541993826628">
        <ele>56.78</ele>
        <time>2025-01-27T10:08:33.248Z</time>
      </trkpt>
      <trkpt lat="58.88829345814884" lon="16.315945414826274">
        <ele>56.75</ele>
        <time>2025-01-27T10:08:35.580Z</time>
      </trkpt>
      <trkpt lat="58.88808592222631" lon="16.316346991807222">
        <ele>56.86</ele>
        <time>2025-01-27T10:08:37.951Z</time>
      </trkpt>
      <trkpt lat="58.88799699023366" lon="16.31677597761154">
        <ele>56.98</ele>
        <time>2025-01-27T10:08:40.354Z</time>
      </trkpt>
      <trkpt lat="58.8879759516567" lon="16.316976975649595">
        <ele>56.96</ele>
        <time>2025-01-27T10:08:42.771Z</time>
      </trkpt>
      <trkpt lat="58.88788316398859" lon="16.317343013361096">
        <ele>56.97</ele>
        <time>2025-01-27T10:08:45.217Z</time>
      </trkpt>
      <trkpt lat="58.8877909630537" lon="16.317706955596805">
        <ele>56.82</ele>
        <time>2025-01-27T10:08:47.691Z</time>
      </trkpt>
      <trkpt lat="58.88767613098025" lon="16.318001244217157">
        <ele>56.65</ele>
        <time>2025-01-27T10:08:50.190Z</time>
      </trkpt>
      <trkpt lat="58.88756196945906" lon="16.318293940275908">
        <ele>56.47</ele>
        <time>2025-01-27T10:08:52.714Z</time>
      </trkpt>
      <trkpt lat="58.88747597113252" lon="16.318713957443833">
        <ele>56.32</ele>
        <time>2025-01-27T10:08:55.270Z</time>
      </trkpt>
      <trkpt lat="58.88734362088144" lon="16.318956529721618">
        <ele>56.18</ele>
        <time>2025-01-27T10:08:57.850Z</time>
      </trkpt>
      <trkpt lat="58.88721194118261" lon="16.319197928532958">
        <ele>55.99</ele>
        <time>2025-01-27T10:09:00.454Z</time>
      </trkpt>
      <trkpt lat="58.887000968679786" lon="16.319561954587698">
        <ele>55.72</ele>
        <time>2025-01-27T10:09:03.096Z</time>
      </trkpt>
      <trkpt lat="58.8868619967252" lon="16.31935198791325">
        <ele>55.48</ele>
        <time>2025-01-27T10:09:05.762Z</time>
      </trkpt>
      <trkpt lat="58.886672146618366" lon="16.31923229433596">
        <ele>55.19</ele>
        <time>2025-01-27T10:09:08.454Z</time>
      </trkpt>
      <trkpt lat="58.886482967063785" lon="16.3191129360348">
        <ele>54.86</ele>
        <time>2025-01-27T10:09:11.173Z</time>
      </trkpt>
      <trkpt lat="58.88630493544042" lon="16.319024926051497">
        <ele>54.58</ele>
        <time>2025-01-27T10:09:13.917Z</time>
      </trkpt>
      <trkpt lat="58.886138973757625" lon="16.31890095770359">
        <ele>54.32</ele>
        <time>2025-01-27T10:09:16.684Z</time>
      </trkpt>
      <trkpt lat="58.886011987924576" lon="16.318843960762024">
        <ele>54.1</ele>
        <time>2025-01-27T10:09:19.469Z</time>
      </trkpt>
      <trkpt lat="58.88587896712124" lon="16.319014951586723">
        <ele>53.84</ele>
        <time>2025-01-27T10:09:22.275Z</time>
      </trkpt>
      <trkpt lat="58.885777965188026" lon="16.31907396018505">
        <ele>53.66</ele>
        <time>2025-01-27T10:09:25.095Z</time>
      </trkpt>
      <trkpt lat="58.88564393855631" lon="16.3191369920969">
        <ele>53.5</ele>
        <time>2025-01-27T10:09:27.934Z</time>
      </trkpt>
      <trkpt lat="58.885492980480194" lon="16.319111930206418">
        <ele>53.37</ele>
        <time>2025-01-27T10:09:30.793Z</time>
      </trkpt>
      <trkpt lat="58.885454926639795" lon="16.319130957126617">
        <ele>53.23</ele>
        <time>2025-01-27T10:09:33.657Z</time>
      </trkpt>
      <trkpt lat="58.885323917493224" lon="16.319388952106237">
        <ele>53.12</ele>
        <time>2025-01-27T10:09:36.546Z</time>
      </trkpt>
      <trkpt lat="58.88520514592528" lon="16.319657675921917">
        <ele>53.0</ele>
        <time>2025-01-27T10:09:39.460Z</time>
      </trkpt>
      <trkpt lat="58.885086961090565" lon="16.319924974814057">
        <ele>53.02</ele>
        <time>2025-01-27T10:09:42.398Z</time>
      </trkpt>
      <trkpt lat="58.88492393307388" lon="16.320353960618377">
        <ele>53.01</ele>
        <time>2025-01-27T10:09:45.373Z</time>
      </trkpt>
      <trkpt lat="58.88476761057973" lon="16.32068680599332">
        <ele>53.0</ele>
        <time>2025-01-27T10:09:48.379Z</time>
      </trkpt>
      <trkpt lat="58.884611958637834" lon="16.321017974987626">
        <ele>52.91</ele>
        <time>2025-01-27T10:09:51.416Z</time>
      </trkpt>
      <trkpt lat="58.88452495448291" lon="16.321320980787277">
        <ele>52.88</ele>
        <time>2025-01-27T10:09:54.477Z</time>
      </trkpt>
      <trkpt lat="58.8845153991133" lon="16.32135040126741">
        <ele>52.87</ele>
        <time>2025-01-27T10:09:57.540Z</time>
      </trkpt>
      <trkpt lat="58.88441397808492" lon="16.321665979921818">
        <ele>52.83</ele>
        <time>2025-01-27T10:10:00.629Z</time>
      </trkpt>
      <trkpt lat="58.88425497338176" lon="16.322112986817956">
        <ele>52.8</ele>
        <time>2025-01-27T10:10:03.756Z</time>
      </trkpt>
      <trkpt lat="58.884173249825835" lon="16.322487574070692">
        <ele>52.79</ele>
        <time>2025-01-27T10:10:06.911Z</time>
      </trkpt>
      <trkpt lat="58.88409194536507" lon="16.322859982028604">
        <ele>52.79</ele>
        <time>2025-01-27T10:10:10.094Z</time>
      </trkpt>
      <trkpt lat="58.88404492288828" lon="16.323182936757803">
        <ele>52.93</ele>
        <time>2025-01-27T10:10:13.300Z</time>
      </trkpt>
      <trkpt lat="58.88393495231867" lon="16.3233919814229">
        <ele>53.13</ele>
        <time>2025-01-27T10:10:16.526Z</time>
      </trkpt>
      <trkpt lat="58.88385498896241" lon="16.323512932285666">
        <ele>53.45</ele>
        <time>2025-01-27T10:10:19.766Z</time>
      </trkpt>
      <trkpt lat="58.88376094400883" lon="16.323680989444256">
        <ele>53.88</ele>
        <time>2025-01-27T10:10:23.023Z</time>
      </trkpt>
      <trkpt lat="58.88366673141718" lon="16.323878802359104">
        <ele>54.39</ele>
        <time>2025-01-27T10:10:26.299Z</time>
      </trkpt>
      <trkpt lat="58.8836519792676" lon="16.323909983038902">
        <ele>54.86</ele>
        <time>2025-01-27T10:10:29.578Z</time>
      </trkpt>
      <trkpt lat="58.883603950962424" lon="16.324022971093655">
        <ele>55.39</ele>
        <time>2025-01-27T10:10:32.867Z</time>
      </trkpt>
      <trkpt lat="58.88342591933906" lon="16.324375933036208">
        <ele>56.09</ele>
        <time>2025-01-27T10:10:36.190Z</time>
      </trkpt>
      <trkpt lat="58.883283929899335" lon="16.324554970487952">
        <ele>56.74</ele>
        <time>2025-01-27T10:10:39.536Z</time>
      </trkpt>
      <trkpt lat="58.883145209401846" lon="16.324703246355057">
        <ele>57.33</ele>
        <time>2025-01-27T10:10:42.903Z</time>
      </trkpt>
      <trkpt lat="58.88300699181855" lon="16.32485093548894">
        <ele>57.96</ele>
        <time>2025-01-27T10:10:46.291Z</time>
      </trkpt>
      <trkpt lat="58.882831977680326" lon="16.32496392354369">
        <ele>58.5</ele>
        <time>2025-01-27T10:10:49.704Z</time>
      </trkpt>
      <trkpt lat="58.882577922195196" lon="16.325165927410126">
        <ele>59.01</ele>
        <time>2025-01-27T10:10:53.153Z</time>
      </trkpt>
      <trkpt lat="58.88239922001958" lon="16.32523206062615">
        <ele>59.47</ele>
        <time>2025-01-27T10:10:56.627Z</time>
      </trkpt>
      <trkpt lat="58.88222093693912" lon="16.325297942385077">
        <ele>59.82</ele>
        <time>2025-01-27T10:11:00.125Z</time>
      </trkpt>
      <trkpt lat="58.88204894028604" lon="16.325375977903605">
        <ele>60.13</ele>
        <time>2025-01-27T10:11:03.646Z</time>
      </trkpt>
      <trkpt lat="58.88188264332712" lon="16.325501706451178">
        <ele>60.35</ele>
        <time>2025-01-27T10:11:07.191Z</time>
      </trkpt>
      <trkpt lat="58.881716933101416" lon="16.32562693208456">
        <ele>60.57</ele>
        <time>2025-01-27T10:11:10.760Z</time>
      </trkpt>
      <trkpt lat="58.881587935611606" lon="16.325700944289565">
        <ele>60.77</ele>
        <time>2025-01-27T10:11:14.347Z</time>
      </trkpt>
      <trkpt lat="58.88143680989742" lon="16.32586346939206">
        <ele>60.92</ele>
        <time>2025-01-27T10:11:17.957Z</time>
      </trkpt>
      <trkpt lat="58.88143680989742" lon="16.325863553211093">
        <ele>61.04</ele>
        <time>2025-01-27T10:11:21.567Z</time>
      </trkpt>
      <trkpt lat="58.88143680989742" lon="16.325863637030125">
        <ele>61.13</ele>
        <time>2025-01-27T10:11:25.177Z</time>
      </trkpt>
      <trkpt lat="58.88143680989742" lon="16.325863720849156">
        <ele>61.17</ele>
        <time>2025-01-27T10:11:28.787Z</time>
      </trkpt>
      <trkpt lat="58.881436893716455" lon="16.325863720849156">
        <ele>61.17</ele>
        <time>2025-01-27T10:11:32.397Z</time>
      </trkpt>
      <trkpt lat="58.881436893716455" lon="16.325863804668188">
        <ele>61.12</ele>
        <time>2025-01-27T10:11:36.007Z</time>
      </trkpt>
      <trkpt lat="58.88143714517355" lon="16.325863553211093">
        <ele>61.03</ele>
        <time>2025-01-27T10:11:39.617Z</time>
      </trkpt>
      <trkpt lat="58.88143714517355" lon="16.325863637030125">
        <ele>60.9</ele>
        <time>2025-01-27T10:11:43.227Z</time>
      </trkpt>
      <trkpt lat="58.881437396630645" lon="16.32586346939206">
        <ele>60.72</ele>
        <time>2025-01-27T10:11:46.837Z</time>
      </trkpt>
      <trkpt lat="58.88128995895386" lon="16.326026916503906">
        <ele>60.47</ele>
        <time>2025-01-27T10:11:50.470Z</time>
      </trkpt>
      <trkpt lat="58.881160877645016" lon="16.326263453811407">
        <ele>60.23</ele>
        <time>2025-01-27T10:11:54.127Z</time>
      </trkpt>
      <trkpt lat="58.88103246688843" lon="16.326498985290527">
        <ele>59.91</ele>
        <time>2025-01-27T10:11:57.808Z</time>
      </trkpt>
      <trkpt lat="58.88090372085571" lon="16.326627731323242">
        <ele>59.53</ele>
        <time>2025-01-27T10:12:01.508Z</time>
      </trkpt>
      <trkpt lat="58.88075309805572" lon="16.327036516740918">
        <ele>59.15</ele>
        <time>2025-01-27T10:12:05.243Z</time>
      </trkpt>
      <trkpt lat="58.880603313446045" lon="16.32744312286377">
        <ele>58.7</ele>
        <time>2025-01-27T10:12:09.012Z</time>
      </trkpt>
      <trkpt lat="58.880510022863746" lon="16.327830450609326">
        <ele>58.23</ele>
        <time>2025-01-27T10:12:12.811Z</time>
      </trkpt>
      <trkpt lat="58.88041673228145" lon="16.328217862173915">
        <ele>57.75</ele>
        <time>2025-01-27T10:12:16.639Z</time>
      </trkpt>
      <trkpt lat="58.880324363708496" lon="16.328601837158203">
        <ele>57.25</ele>
        <time>2025-01-27T10:12:20.497Z</time>
      </trkpt>
      <trkpt lat="58.88025999069214" lon="16.32896661758423">
        <ele>56.6</ele>
        <time>2025-01-27T10:12:24.381Z</time>
      </trkpt>
      <trkpt lat="58.880152367055416" lon="16.32920323871076">
        <ele>55.89</ele>
        <time>2025-01-27T10:12:28.287Z</time>
      </trkpt>
      <trkpt lat="58.88004541397095" lon="16.32943868637085">
        <ele>55.05</ele>
        <time>2025-01-27T10:12:32.215Z</time>
      </trkpt>
      <trkpt lat="58.87991666793823" lon="16.329610347747803">
        <ele>54.13</ele>
        <time>2025-01-27T10:12:36.164Z</time>
      </trkpt>
      <trkpt lat="58.879830837249756" lon="16.32965326309204">
        <ele>53.32</ele>
        <time>2025-01-27T10:12:40.125Z</time>
      </trkpt>
      <trkpt lat="58.879637718200684" lon="16.329545974731445">
        <ele>52.48</ele>
        <time>2025-01-27T10:12:44.112Z</time>
      </trkpt>
      <trkpt lat="58.87950897216797" lon="16.329267024993896">
        <ele>51.79</ele>
        <time>2025-01-27T10:12:48.125Z</time>
      </trkpt>
      <trkpt lat="58.87950897216797" lon="16.329030990600586">
        <ele>51.21</ele>
        <time>2025-01-27T10:12:52.155Z</time>
      </trkpt>
      <trkpt lat="58.879594802856445" lon="16.3287091255188">
        <ele>50.68</ele>
        <time>2025-01-27T10:12:56.210Z</time>
      </trkpt>
      <trkpt lat="58.87950897216797" lon="16.328494548797607">
        <ele>50.06</ele>
        <time>2025-01-27T10:13:00.283Z</time>
      </trkpt>
      <trkpt lat="58.87935885228217" lon="16.328301429748535">
        <ele>49.44</ele>
        <time>2025-01-27T10:13:04.381Z</time>
      </trkpt>
      <trkpt lat="58.87927302159369" lon="16.328237056732178">
        <ele>48.95</ele>
        <time>2025-01-27T10:13:08.491Z</time>
      </trkpt>
      <trkpt lat="58.87911175377667" lon="16.328151058405638">
        <ele>48.52</ele>
        <time>2025-01-27T10:13:12.623Z</time>
      </trkpt>
      <trkpt lat="58.87895107269287" lon="16.328065395355225">
        <ele>48.18</ele>
        <time>2025-01-27T10:13:16.777Z</time>
      </trkpt>
      <trkpt lat="58.87877907603979" lon="16.328097581863403">
        <ele>48.01</ele>
        <time>2025-01-27T10:13:20.955Z</time>
      </trkpt>
      <trkpt lat="58.878607749938965" lon="16.328129768371582">
        <ele>47.93</ele>
        <time>2025-01-27T10:13:25.156Z</time>
      </trkpt>
      <trkpt lat="58.87856483459473" lon="16.327979564666748">
        <ele>47.95</ele>
        <time>2025-01-27T10:13:29.368Z</time>
      </trkpt>
      <trkpt lat="58.87847900390625" lon="16.32795810699463">
        <ele>48.05</ele>
        <time>2025-01-27T10:13:33.592Z</time>
      </trkpt>
      <trkpt lat="58.87825327925384" lon="16.328033292666078">
        <ele>48.27</ele>
        <time>2025-01-27T10:13:37.847Z</time>
      </trkpt>
      <trkpt lat="58.87802839279175" lon="16.328108310699463">
        <ele>48.55</ele>
        <time>2025-01-27T10:13:42.132Z</time>
      </trkpt>
      <trkpt lat="58.87788858264685" lon="16.328344848006964">
        <ele>48.9</ele>
        <time>2025-01-27T10:13:46.442Z</time>
      </trkpt>
      <trkpt lat="58.87774952687323" lon="16.328580379486084">
        <ele>49.37</ele>
        <time>2025-01-27T10:13:50.777Z</time>
      </trkpt>
      <trkpt lat="58.87781406752765" lon="16.329053873196244">
        <ele>49.85</ele>
        <time>2025-01-27T10:13:55.146Z</time>
      </trkpt>
      <trkpt lat="58.87787860818207" lon="16.329527450725436">
        <ele>50.43</ele>
        <time>2025-01-27T10:13:59.548Z</time>
      </trkpt>
      <trkpt lat="58.87794256210327" lon="16.329996585845947">
        <ele>51.03</ele>
        <time>2025-01-27T10:14:03.984Z</time>
      </trkpt>
      <trkpt lat="58.87794256210327" lon="16.330567058175802">
        <ele>51.66</ele>
        <time>2025-01-27T10:14:08.460Z</time>
      </trkpt>
      <trkpt lat="58.87794256210327" lon="16.33113384246826">
        <ele>52.29</ele>
        <time>2025-01-27T10:14:12.975Z</time>
      </trkpt>
      <trkpt lat="58.87785681523383" lon="16.33169174194336">
        <ele>52.88</ele>
        <time>2025-01-27T10:14:17.530Z</time>
      </trkpt>
      <trkpt lat="58.8777494430542" lon="16.332013607025146">
        <ele>53.38</ele>
        <time>2025-01-27T10:14:22.112Z</time>
      </trkpt>
      <trkpt lat="58.877663277089596" lon="16.332487100735307">
        <ele>53.79</ele>
        <time>2025-01-27T10:14:26.728Z</time>
      </trkpt>
      <trkpt lat="58.877577781677246" lon="16.33295774459839">
        <ele>54.18</ele>
        <time>2025-01-27T10:14:31.379Z</time>
      </trkpt>
      <trkpt lat="58.87748088687658" lon="16.333269719034433">
        <ele>54.55</ele>
        <time>2025-01-27T10:14:36.055Z</time>
      </trkpt>
      <trkpt lat="58.877384662628174" lon="16.333580017089844">
        <ele>54.78</ele>
        <time>2025-01-27T10:14:40.756Z</time>
      </trkpt>
      <trkpt lat="58.87733085080981" lon="16.33387053385377">
        <ele>54.93</ele>
        <time>2025-01-27T10:14:45.478Z</time>
      </trkpt>
      <trkpt lat="58.87727737426758" lon="16.33415937423706">
        <ele>55.09</ele>
        <time>2025-01-27T10:14:50.222Z</time>
      </trkpt>
      <trkpt lat="58.87723445892334" lon="16.334524154663086">
        <ele>55.06</ele>
        <time>2025-01-27T10:14:54.992Z</time>
      </trkpt>
      <trkpt lat="58.87726672925055" lon="16.334847025573254">
        <ele>54.97</ele>
        <time>2025-01-27T10:14:59.784Z</time>
      </trkpt>
      <trkpt lat="58.8772988319397" lon="16.33516788482666">
        <ele>54.79</ele>
        <time>2025-01-27T10:15:04.599Z</time>
      </trkpt>
      <trkpt lat="58.8772988319397" lon="16.335490755736828">
        <ele>54.58</ele>
        <time>2025-01-27T10:15:09.436Z</time>
      </trkpt>
      <trkpt lat="58.87729891575873" lon="16.335811614990234">
        <ele>54.29</ele>
        <time>2025-01-27T10:15:14.295Z</time>
      </trkpt>
      <trkpt lat="58.877320289611816" lon="16.336026191711426">
        <ele>53.92</ele>
        <time>2025-01-27T10:15:19.170Z</time>
      </trkpt>
      <trkpt lat="58.87742782942951" lon="16.33633816614747">
        <ele>53.45</ele>
        <time>2025-01-27T10:15:24.071Z</time>
      </trkpt>
      <trkpt lat="58.87753486633301" lon="16.33664846420288">
        <ele>52.95</ele>
        <time>2025-01-27T10:15:28.997Z</time>
      </trkpt>
      <trkpt lat="58.8776421546936" lon="16.33718490600586">
        <ele>52.37</ele>
        <time>2025-01-27T10:15:33.963Z</time>
      </trkpt>
      <trkpt lat="58.8776421546936" lon="16.33760467171669">
        <ele>51.68</ele>
        <time>2025-01-27T10:15:38.958Z</time>
      </trkpt>
      <trkpt lat="58.8776421546936" lon="16.338021755218506">
        <ele>50.94</ele>
        <time>2025-01-27T10:15:43.982Z</time>
      </trkpt>
      <trkpt lat="58.87766361236572" lon="16.338463062420487">
        <ele>50.23</ele>
        <time>2025-01-27T10:15:49.037Z</time>
      </trkpt>
      <trkpt lat="58.87768507003784" lon="16.33890151977539">
        <ele>49.47</ele>
        <time>2025-01-27T10:15:54.122Z</time>
      </trkpt>
      <trkpt lat="58.87764198705554" lon="16.339317681267858">
        <ele>48.7</ele>
        <time>2025-01-27T10:15:59.237Z</time>
      </trkpt>
      <trkpt lat="58.87759890407324" lon="16.339733842760324">
        <ele>47.88</ele>
        <time>2025-01-27T10:16:04.381Z</time>
      </trkpt>
      <trkpt lat="58.87755632400513" lon="16.3401460647583">
        <ele>47.01</ele>
        <time>2025-01-27T10:16:09.554Z</time>
      </trkpt>
      <trkpt lat="58.877599239349365" lon="16.340725421905518">
        <ele>46.19</ele>
        <time>2025-01-27T10:16:14.768Z</time>
      </trkpt>
      <trkpt lat="58.87765305116773" lon="16.341048292815685">
        <ele>45.45</ele>
        <time>2025-01-27T10:16:20.005Z</time>
      </trkpt>
      <trkpt lat="58.87770652770996" lon="16.341369152069092">
        <ele>44.69</ele>
        <time>2025-01-27T10:16:25.265Z</time>
      </trkpt>
      <trkpt lat="58.877720860764384" lon="16.34180685505271">
        <ele>43.98</ele>
        <time>2025-01-27T10:16:30.556Z</time>
      </trkpt>
      <trkpt lat="58.87773519381881" lon="16.342244558036327">
        <ele>43.31</ele>
        <time>2025-01-27T10:16:35.877Z</time>
      </trkpt>
      <trkpt lat="58.8777494430542" lon="16.34267807006836">
        <ele>42.69</ele>
        <time>2025-01-27T10:16:41.228Z</time>
      </trkpt>
      <trkpt lat="58.87772798538208" lon="16.343107223510742">
        <ele>42.15</ele>
        <time>2025-01-27T10:16:46.609Z</time>
      </trkpt>
      <trkpt lat="58.87766361236572" lon="16.343514919281006">
        <ele>41.62</ele>
        <time>2025-01-27T10:16:52.020Z</time>
      </trkpt>
      <trkpt lat="58.87751835398376" lon="16.343955975025892">
        <ele>41.14</ele>
        <time>2025-01-27T10:16:57.467Z</time>
      </trkpt>
      <trkpt lat="58.8773730956018" lon="16.34439711458981">
        <ele>40.74</ele>
        <time>2025-01-27T10:17:02.950Z</time>
      </trkpt>
      <trkpt lat="58.877227921038866" lon="16.34483825415373">
        <ele>40.39</ele>
        <time>2025-01-27T10:17:08.469Z</time>
      </trkpt>
      <trkpt lat="58.87708433903754" lon="16.345274448394775">
        <ele>40.06</ele>
        <time>2025-01-27T10:17:14.024Z</time>
      </trkpt>
      <trkpt lat="58.87701988220215" lon="16.34568214416504">
        <ele>39.64</ele>
        <time>2025-01-27T10:17:19.608Z</time>
      </trkpt>
      <trkpt lat="58.876987528055906" lon="16.346231075003743">
        <ele>38.99</ele>
        <time>2025-01-27T10:17:25.231Z</time>
      </trkpt>
      <trkpt lat="58.87695550918579" lon="16.346776485443115">
        <ele>38.62</ele>
        <time>2025-01-27T10:17:30.892Z</time>
      </trkpt>
      <trkpt lat="58.876969842240214" lon="16.347192646935582">
        <ele>38.32</ele>
        <time>2025-01-27T10:17:36.581Z</time>
      </trkpt>
      <trkpt lat="58.87698417529464" lon="16.34760889224708">
        <ele>38.16</ele>
        <time>2025-01-27T10:17:42.299Z</time>
      </trkpt>
      <trkpt lat="58.87699842453003" lon="16.348021030426025">
        <ele>38.07</ele>
        <time>2025-01-27T10:17:48.046Z</time>
      </trkpt>
      <trkpt lat="58.87695534154773" lon="16.348516149446368">
        <ele>37.97</ele>
        <time>2025-01-27T10:17:53.828Z</time>
      </trkpt>
      <trkpt lat="58.87691259384155" lon="16.349008083343506">
        <ele>37.86</ele>
        <time>2025-01-27T10:17:59.644Z</time>
      </trkpt>
      <trkpt lat="58.87681569904089" lon="16.34955693036318">
        <ele>37.82</ele>
        <time>2025-01-27T10:18:05.500Z</time>
      </trkpt>
      <trkpt lat="58.87671947479248" lon="16.350102424621582">
        <ele>37.94</ele>
        <time>2025-01-27T10:18:11.396Z</time>
      </trkpt>
      <trkpt lat="58.87662844732404" lon="16.35036025196314">
        <ele>38.07</ele>
        <time>2025-01-27T10:18:17.314Z</time>
      </trkpt>
      <trkpt lat="58.876590728759766" lon="16.350467205047607">
        <ele>38.23</ele>
        <time>2025-01-27T10:18:23.241Z</time>
      </trkpt>
      <trkpt lat="58.87651369906962" lon="16.350659485906363">
        <ele>38.47</ele>
        <time>2025-01-27T10:18:29.185Z</time>
      </trkpt>
      <trkpt lat="58.87651369906962" lon="16.350659569725394">
        <ele>38.72</ele>
        <time>2025-01-27T10:18:35.129Z</time>
      </trkpt>
      <trkpt lat="58.87651386670768" lon="16.350659234449267">
        <ele>39.03</ele>
        <time>2025-01-27T10:18:41.073Z</time>
      </trkpt>
      <trkpt lat="58.876461647450924" lon="16.35078990831971">
        <ele>39.46</ele>
        <time>2025-01-27T10:18:47.028Z</time>
      </trkpt>
      <trkpt lat="58.876396268606186" lon="16.350953355431557">
        <ele>39.9</ele>
        <time>2025-01-27T10:18:52.997Z</time>
      </trkpt>
      <trkpt lat="58.87633332051337" lon="16.35111093521118">
        <ele>40.42</ele>
        <time>2025-01-27T10:18:58.980Z</time>
      </trkpt>
      <trkpt lat="58.8762903213501" lon="16.351304054260254">
        <ele>40.94</ele>
        <time>2025-01-27T10:19:04.978Z</time>
      </trkpt>
      <trkpt lat="58.87619560584426" lon="16.350761577486992">
        <ele>41.53</ele>
        <time>2025-01-27T10:19:11.015Z</time>
      </trkpt>
      <trkpt lat="58.87610089033842" lon="16.35021918453276">
        <ele>42.01</ele>
        <time>2025-01-27T10:19:17.092Z</time>
      </trkpt>
      <trkpt lat="58.87600617483258" lon="16.3496767077595">
        <ele>42.64</ele>
        <time>2025-01-27T10:19:23.209Z</time>
      </trkpt>
      <trkpt lat="58.875911459326744" lon="16.34913431480527">
        <ele>43.44</ele>
        <time>2025-01-27T10:19:29.365Z</time>
      </trkpt>
      <trkpt lat="58.87581825256348" lon="16.348600387573242">
        <ele>44.3</ele>
        <time>2025-01-27T10:19:35.560Z</time>
      </trkpt>
      <trkpt lat="58.875732421875" lon="16.348342895507812">
        <ele>45.14</ele>
        <time>2025-01-27T10:19:41.776Z</time>
      </trkpt>
      <trkpt lat="58.875603675842285" lon="16.348235607147217">
        <ele>46.02</ele>
        <time>2025-01-27T10:19:48.011Z</time>
      </trkpt>
      <trkpt lat="58.87549638748169" lon="16.348257064819336">
        <ele>46.94</ele>
        <time>2025-01-27T10:19:54.261Z</time>
      </trkpt>
      <trkpt lat="58.87522766366601" lon="16.348385978490114">
        <ele>47.9</ele>
        <time>2025-01-27T10:20:00.548Z</time>
      </trkpt>
      <trkpt lat="58.87495994567871" lon="16.348514556884766">
        <ele>48.94</ele>
        <time>2025-01-27T10:20:06.871Z</time>
      </trkpt>
      <trkpt lat="58.87468099594116" lon="16.348557472229004">
        <ele>50.05</ele>
        <time>2025-01-27T10:20:13.232Z</time>
      </trkpt>
      <trkpt lat="58.874573707580566" lon="16.34842872619629">
        <ele>51.17</ele>
        <time>2025-01-27T10:20:19.610Z</time>
      </trkpt>
      <trkpt lat="58.87437195517123" lon="16.348006781190634">
        <ele>52.41</ele>
        <time>2025-01-27T10:20:26.027Z</time>
      </trkpt>
      <trkpt lat="58.8743716198951" lon="16.34800602681935">
        <ele>53.5</ele>
        <time>2025-01-27T10:20:32.445Z</time>
      </trkpt>
      <trkpt lat="58.87437153607607" lon="16.348005859181285">
        <ele>54.61</ele>
        <time>2025-01-27T10:20:38.863Z</time>
      </trkpt>
      <trkpt lat="58.87437145225704" lon="16.34800560772419">
        <ele>55.74</ele>
        <time>2025-01-27T10:20:45.281Z</time>
      </trkpt>
      <trkpt lat="58.87437145225704" lon="16.348005523905158">
        <ele>56.88</ele>
        <time>2025-01-27T10:20:51.699Z</time>
      </trkpt>
      <trkpt lat="58.87437111698091" lon="16.34800468571484">
        <ele>58.04</ele>
        <time>2025-01-27T10:20:58.117Z</time>
      </trkpt>
      <trkpt lat="58.87437153607607" lon="16.348005523905158">
        <ele>59.2</ele>
        <time>2025-01-27T10:21:04.535Z</time>
      </trkpt>
      <trkpt lat="58.874209597706795" lon="16.347666392102838">
        <ele>60.52</ele>
        <time>2025-01-27T10:21:10.985Z</time>
      </trkpt>
      <trkpt lat="58.87404774315655" lon="16.34732742793858">
        <ele>61.84</ele>
        <time>2025-01-27T10:21:17.467Z</time>
      </trkpt>
      <trkpt lat="58.873887062072754" lon="16.346991062164307">
        <ele>63.14</ele>
        <time>2025-01-27T10:21:23.980Z</time>
      </trkpt>
      <trkpt lat="58.8737154006958" lon="16.34669065475464">
        <ele>64.4</ele>
        <time>2025-01-27T10:21:30.524Z</time>
      </trkpt>
      <trkpt lat="58.873608112335205" lon="16.34666919708252">
        <ele>65.58</ele>
        <time>2025-01-27T10:21:37.083Z</time>
      </trkpt>
      <trkpt lat="58.87332337908447" lon="16.3467013835907">
        <ele>66.79</ele>
        <time>2025-01-27T10:21:43.680Z</time>
      </trkpt>
      <trkpt lat="58.87303864583373" lon="16.34673365391791">
        <ele>67.87</ele>
        <time>2025-01-27T10:21:50.315Z</time>
      </trkpt>
      <trkpt lat="58.87275391258299" lon="16.346765840426087">
        <ele>68.85</ele>
        <time>2025-01-27T10:21:56.988Z</time>
      </trkpt>
      <trkpt lat="58.87247093953192" lon="16.346797943115234">
        <ele>69.8</ele>
        <time>2025-01-27T10:22:03.699Z</time>
      </trkpt>
      <trkpt lat="58.872227277606726" lon="16.34682652540505">
        <ele>70.72</ele>
        <time>2025-01-27T10:22:10.443Z</time>
      </trkpt>
      <trkpt lat="58.87198369950056" lon="16.346855191513896">
        <ele>71.58</ele>
        <time>2025-01-27T10:22:17.219Z</time>
      </trkpt>
      <trkpt lat="58.87174129486084" lon="16.34688377380371">
        <ele>72.4</ele>
        <time>2025-01-27T10:22:24.028Z</time>
      </trkpt>
      <trkpt lat="58.87149411253631" lon="16.34696968831122">
        <ele>73.2</ele>
        <time>2025-01-27T10:22:30.870Z</time>
      </trkpt>
      <trkpt lat="58.8712477684021" lon="16.347055435180664">
        <ele>73.96</ele>
        <time>2025-01-27T10:22:37.746Z</time>
      </trkpt>
      <trkpt lat="58.87103285640478" lon="16.347055351361632">
        <ele>74.64</ele>
        <time>2025-01-27T10:22:44.650Z</time>
      </trkpt>
      <trkpt lat="58.87081861495972" lon="16.347055435180664">
        <ele>75.24</ele>
        <time>2025-01-27T10:22:51.583Z</time>
      </trkpt>
      <trkpt lat="58.870614347979426" lon="16.346894167363644">
        <ele>75.81</ele>
        <time>2025-01-27T10:22:58.546Z</time>
      </trkpt>
      <trkpt lat="58.87041091918945" lon="16.346733570098877">
        <ele>76.27</ele>
        <time>2025-01-27T10:23:05.538Z</time>
      </trkpt>
      <trkpt lat="58.87022810988128" lon="16.346518490463495">
        <ele>76.67</ele>
        <time>2025-01-27T10:23:12.559Z</time>
      </trkpt>
      <trkpt lat="58.87004613876343" lon="16.346304416656494">
        <ele>76.99</ele>
        <time>2025-01-27T10:23:19.608Z</time>
      </trkpt>
      <trkpt lat="58.86990984901786" lon="16.345988838002086">
        <ele>77.22</ele>
        <time>2025-01-27T10:23:26.685Z</time>
      </trkpt>
      <trkpt lat="58.86977364309132" lon="16.34567334316671">
        <ele>77.4</ele>
        <time>2025-01-27T10:23:33.791Z</time>
      </trkpt>
      <trkpt lat="58.869638442993164" lon="16.345360279083252">
        <ele>77.43</ele>
        <time>2025-01-27T10:23:40.925Z</time>
      </trkpt>
      <trkpt lat="58.86942386627197" lon="16.3456392288208">
        <ele>77.44</ele>
        <time>2025-01-27T10:23:48.094Z</time>
      </trkpt>
      <trkpt lat="58.86932697147131" lon="16.345886578783393">
        <ele>77.34</ele>
        <time>2025-01-27T10:23:55.284Z</time>
      </trkpt>
      <trkpt lat="58.8692307472229" lon="16.34613275527954">
        <ele>77.18</ele>
        <time>2025-01-27T10:24:02.495Z</time>
      </trkpt>
      <trkpt lat="58.86902639642358" lon="16.346476832404733">
        <ele>76.96</ele>
        <time>2025-01-27T10:24:09.743Z</time>
      </trkpt>
      <trkpt lat="58.86882305145264" lon="16.346819400787354">
        <ele>76.71</ele>
        <time>2025-01-27T10:24:17.027Z</time>
      </trkpt>
      <trkpt lat="58.868629932403564" lon="16.34694814682007">
        <ele>76.42</ele>
        <time>2025-01-27T10:24:24.338Z</time>
      </trkpt>
      <trkpt lat="58.8684363104403" lon="16.34725995361805">
        <ele>76.08</ele>
        <time>2025-01-27T10:24:31.683Z</time>
      </trkpt>
      <trkpt lat="58.86824369430542" lon="16.347570419311523">
        <ele>75.7</ele>
        <time>2025-01-27T10:24:39.061Z</time>
      </trkpt>
      <trkpt lat="58.86805057525635" lon="16.34765625">
        <ele>75.24</ele>
        <time>2025-01-27T10:24:46.466Z</time>
      </trkpt>
      <trkpt lat="58.867857456207275" lon="16.34761333465576">
        <ele>74.72</ele>
        <time>2025-01-27T10:24:53.897Z</time>
      </trkpt>
      <trkpt lat="58.86772871017456" lon="16.34765625">
        <ele>74.2</ele>
        <time>2025-01-27T10:25:01.345Z</time>
      </trkpt>
      <trkpt lat="58.867642879486084" lon="16.347742080688477">
        <ele>73.68</ele>
        <time>2025-01-27T10:25:08.806Z</time>
      </trkpt>
      <trkpt lat="58.86757850646973" lon="16.347849369049072">
        <ele>73.16</ele>
        <time>2025-01-27T10:25:16.279Z</time>
      </trkpt>
      <trkpt lat="58.86751413345337" lon="16.348299980163574">
        <ele>72.63</ele>
        <time>2025-01-27T10:25:23.784Z</time>
      </trkpt>
      <trkpt lat="58.86753559112549" lon="16.348612122237682">
        <ele>72.13</ele>
        <time>2025-01-27T10:25:31.311Z</time>
      </trkpt>
      <trkpt lat="58.86755704879761" lon="16.34892225265503">
        <ele>71.65</ele>
        <time>2025-01-27T10:25:38.859Z</time>
      </trkpt>
      <trkpt lat="58.86751413345337" lon="16.34939432144165">
        <ele>71.16</ele>
        <time>2025-01-27T10:25:46.441Z</time>
      </trkpt>
      <trkpt lat="58.867363929748535" lon="16.349544525146484">
        <ele>70.65</ele>
        <time>2025-01-27T10:25:54.045Z</time>
      </trkpt>
      <trkpt lat="58.86729955673218" lon="16.3496732711792">
        <ele>70.15</ele>
        <time>2025-01-27T10:26:01.662Z</time>
      </trkpt>
      <trkpt lat="58.8672137260437" lon="16.350080966949463">
        <ele>69.69</ele>
        <time>2025-01-27T10:26:09.309Z</time>
      </trkpt>
      <trkpt lat="58.86708464473486" lon="16.350371316075325">
        <ele>69.15</ele>
        <time>2025-01-27T10:26:16.983Z</time>
      </trkpt>
      <trkpt lat="58.86695623397827" lon="16.35066032409668">
        <ele>68.7</ele>
        <time>2025-01-27T10:26:24.683Z</time>
      </trkpt>
      <trkpt lat="58.866891860961914" lon="16.350746154785156">
        <ele>68.29</ele>
        <time>2025-01-27T10:26:32.393Z</time>
      </trkpt>
      <trkpt lat="58.866730676963925" lon="16.350746070966125">
        <ele>67.91</ele>
        <time>2025-01-27T10:26:40.125Z</time>
      </trkpt>
      <trkpt lat="58.86656999588013" lon="16.350746154785156">
        <ele>67.57</ele>
        <time>2025-01-27T10:26:47.878Z</time>
      </trkpt>
      <trkpt lat="58.86627981439233" lon="16.350649427622557">
        <ele>67.24</ele>
        <time>2025-01-27T10:26:55.671Z</time>
      </trkpt>
      <trkpt lat="58.86599063873291" lon="16.350553035736084">
        <ele>66.95</ele>
        <time>2025-01-27T10:27:03.503Z</time>
      </trkpt>
      <trkpt lat="58.86582928709686" lon="16.350305685773492">
        <ele>66.64</ele>
        <time>2025-01-27T10:27:11.363Z</time>
      </trkpt>
      <trkpt lat="58.86566877365112" lon="16.350059509277344">
        <ele>66.28</ele>
        <time>2025-01-27T10:27:19.250Z</time>
      </trkpt>
      <trkpt lat="58.86541128158569" lon="16.349759101867676">
        <ele>65.94</ele>
        <time>2025-01-27T10:27:27.177Z</time>
      </trkpt>
      <trkpt lat="58.86523962020874" lon="16.349608898162842">
        <ele>65.65</ele>
        <time>2025-01-27T10:27:35.129Z</time>
      </trkpt>
      <trkpt lat="58.86506795883179" lon="16.349565982818604">
        <ele>65.39</ele>
        <time>2025-01-27T10:27:43.104Z</time>
      </trkpt>
      <trkpt lat="58.86487567797303" lon="16.34974904358387">
        <ele>65.2</ele>
        <time>2025-01-27T10:27:51.108Z</time>
      </trkpt>
      <trkpt lat="58.864686246961355" lon="16.349929003044963">
        <ele>65.06</ele>
        <time>2025-01-27T10:27:59.140Z</time>
      </trkpt>
      <trkpt lat="58.8646858278662" lon="16.349929505959153">
        <ele>64.95</ele>
        <time>2025-01-27T10:28:07.172Z</time>
      </trkpt>
      <trkpt lat="58.864685744047165" lon="16.349929673597217">
        <ele>64.87</ele>
        <time>2025-01-27T10:28:15.204Z</time>
      </trkpt>
      <trkpt lat="58.8646855764091" lon="16.34992992505431">
        <ele>64.83</ele>
        <time>2025-01-27T10:28:23.236Z</time>
      </trkpt>
      <trkpt lat="58.8646855764091" lon="16.349930008873343">
        <ele>64.82</ele>
        <time>2025-01-27T10:28:31.268Z</time>
      </trkpt>
      <trkpt lat="58.8646839838475" lon="16.349931601434946">
        <ele>64.84</ele>
        <time>2025-01-27T10:28:39.301Z</time>
      </trkpt>
      <trkpt lat="58.86468415148556" lon="16.349931517615914">
        <ele>64.89</ele>
        <time>2025-01-27T10:28:47.334Z</time>
      </trkpt>
      <trkpt lat="58.864617347717285" lon="16.349995136260986">
        <ele>64.97</ele>
        <time>2025-01-27T10:28:55.377Z</time>
      </trkpt>
      <trkpt lat="58.864381313323975" lon="16.349995136260986">
        <ele>65.08</ele>
        <time>2025-01-27T10:29:03.451Z</time>
      </trkpt>
      <trkpt lat="58.86423110961914" lon="16.350102424621582">
        <ele>65.2</ele>
        <time>2025-01-27T10:29:11.547Z</time>
      </trkpt>
      <trkpt lat="58.86406975798309" lon="16.350349690765142">
        <ele>65.37</ele>
        <time>2025-01-27T10:29:19.670Z</time>
      </trkpt>
      <trkpt lat="58.86390924453735" lon="16.350595951080322">
        <ele>65.57</ele>
        <time>2025-01-27T10:29:27.821Z</time>
      </trkpt>
      <trkpt lat="58.863844871520996" lon="16.35061740875244">
        <ele>65.75</ele>
        <time>2025-01-27T10:29:35.980Z</time>
      </trkpt>
      <trkpt lat="58.86364420875907" lon="16.350474078208208">
        <ele>65.94</ele>
        <time>2025-01-27T10:29:44.168Z</time>
      </trkpt>
      <trkpt lat="58.863443629816175" lon="16.350330747663975">
        <ele>66.13</ele>
        <time>2025-01-27T10:29:52.385Z</time>
      </trkpt>
      <trkpt lat="58.86324405670166" lon="16.35018825531006">
        <ele>66.33</ele>
        <time>2025-01-27T10:30:00.630Z</time>
      </trkpt>
      <trkpt lat="58.86301481164992" lon="16.35028850287199">
        <ele>66.57</ele>
        <time>2025-01-27T10:30:08.906Z</time>
      </trkpt>
      <trkpt lat="58.86278556659818" lon="16.350388834252954">
        <ele>66.77</ele>
        <time>2025-01-27T10:30:17.214Z</time>
      </trkpt>
      <trkpt lat="58.86255741119385" lon="16.350488662719727">
        <ele>66.96</ele>
        <time>2025-01-27T10:30:25.553Z</time>
      </trkpt>
      <trkpt lat="58.86232137680054" lon="16.35044574737549">
        <ele>67.18</ele>
        <time>2025-01-27T10:30:33.924Z</time>
      </trkpt>
      <trkpt lat="58.86210646480322" lon="16.350456476211548">
        <ele>67.38</ele>
        <time>2025-01-27T10:30:42.324Z</time>
      </trkpt>
      <trkpt lat="58.861892223358154" lon="16.350467205047607">
        <ele>67.57</ele>
        <time>2025-01-27T10:30:50.752Z</time>
      </trkpt>
      <trkpt lat="58.861656188964844" lon="16.350252628326416">
        <ele>67.64</ele>
        <time>2025-01-27T10:30:59.215Z</time>
      </trkpt>
      <trkpt lat="58.8614443782717" lon="16.350146597251296">
        <ele>67.7</ele>
        <time>2025-01-27T10:31:07.707Z</time>
      </trkpt>
      <trkpt lat="58.86144387535751" lon="16.3501463457942">
        <ele>67.77</ele>
        <time>2025-01-27T10:31:16.199Z</time>
      </trkpt>
      <trkpt lat="58.86144379153848" lon="16.3501463457942">
        <ele>67.8</ele>
        <time>2025-01-27T10:31:24.691Z</time>
      </trkpt>
      <trkpt lat="58.86144362390041" lon="16.35014626197517">
        <ele>67.82</ele>
        <time>2025-01-27T10:31:33.183Z</time>
      </trkpt>
      <trkpt lat="58.86144354008138" lon="16.35014626197517">
        <ele>67.81</ele>
        <time>2025-01-27T10:31:41.675Z</time>
      </trkpt>
      <trkpt lat="58.86144152842462" lon="16.35014525614679">
        <ele>67.78</ele>
        <time>2025-01-27T10:31:50.168Z</time>
      </trkpt>
      <trkpt lat="58.86144161224365" lon="16.35014533996582">
        <ele>67.74</ele>
        <time>2025-01-27T10:31:58.661Z</time>
      </trkpt>
      <trkpt lat="58.8612699508667" lon="16.3496732711792">
        <ele>67.57</ele>
        <time>2025-01-27T10:32:07.194Z</time>
      </trkpt>
      <trkpt lat="58.86116785928607" lon="16.349815595895052">
        <ele>67.52</ele>
        <time>2025-01-27T10:32:15.743Z</time>
      </trkpt>
      <trkpt lat="58.86116752400994" lon="16.349816182628274">
        <ele>67.43</ele>
        <time>2025-01-27T10:32:24.293Z</time>
      </trkpt>
      <trkpt lat="58.86116744019091" lon="16.349816350266337">
        <ele>67.34</ele>
        <time>2025-01-27T10:32:32.843Z</time>
      </trkpt>
      <trkpt lat="58.86116727255285" lon="16.349816685542464">
        <ele>67.24</ele>
        <time>2025-01-27T10:32:41.393Z</time>
      </trkpt>
      <trkpt lat="58.86116727255285" lon="16.349816769361496">
        <ele>67.14</ele>
        <time>2025-01-27T10:32:49.943Z</time>
      </trkpt>
      <trkpt lat="58.86116542853415" lon="16.34981945157051">
        <ele>67.04</ele>
        <time>2025-01-27T10:32:58.493Z</time>
      </trkpt>
      <trkpt lat="58.86116542853415" lon="16.349819619208574">
        <ele>66.95</ele>
        <time>2025-01-27T10:33:07.043Z</time>
      </trkpt>
      <trkpt lat="58.86100273579359" lon="16.350047271698713">
        <ele>66.84</ele>
        <time>2025-01-27T10:33:15.620Z</time>
      </trkpt>
      <trkpt lat="58.860840797424316" lon="16.350274085998535">
        <ele>66.78</ele>
        <time>2025-01-27T10:33:24.224Z</time>
      </trkpt>
      <trkpt lat="58.860697550699115" lon="16.35056057944894">
        <ele>66.76</ele>
        <time>2025-01-27T10:33:32.855Z</time>
      </trkpt>
      <trkpt lat="58.86069344356656" lon="16.350568206980824">
        <ele>66.73</ele>
        <time>2025-01-27T10:33:41.487Z</time>
      </trkpt>
      <trkpt lat="58.860693108290434" lon="16.35056896135211">
        <ele>66.71</ele>
        <time>2025-01-27T10:33:50.119Z</time>
      </trkpt>
      <trkpt lat="58.8606930244714" lon="16.350569212809205">
        <ele>66.71</ele>
        <time>2025-01-27T10:33:58.751Z</time>
      </trkpt>
      <trkpt lat="58.86069294065237" lon="16.350569548085332">
        <ele>66.74</ele>
        <time>2025-01-27T10:34:07.383Z</time>
      </trkpt>
      <trkpt lat="58.86069294065237" lon="16.350569631904364">
        <ele>66.8</ele>
        <time>2025-01-27T10:34:16.015Z</time>
      </trkpt>
      <trkpt lat="58.86069134809077" lon="16.3505729008466">
        <ele>66.89</ele>
        <time>2025-01-27T10:34:24.647Z</time>
      </trkpt>
      <trkpt lat="58.86051893234253" lon="16.35091781616211">
        <ele>67.11</ele>
        <time>2025-01-27T10:34:33.312Z</time>
      </trkpt>
      <trkpt lat="58.86034735478461" lon="16.3511323928833">
        <ele>67.24</ele>
        <time>2025-01-27T10:34:42.005Z</time>
      </trkpt>
      <trkpt lat="58.86006253771484" lon="16.35094430297613">
        <ele>67.32</ele>
        <time>2025-01-27T10:34:50.738Z</time>
      </trkpt>
      <trkpt lat="58.85977772064507" lon="16.350756213068962">
        <ele>67.34</ele>
        <time>2025-01-27T10:34:59.511Z</time>
      </trkpt>
      <trkpt lat="58.8594929035753" lon="16.350568123161793">
        <ele>67.47</ele>
        <time>2025-01-27T10:35:08.325Z</time>
      </trkpt>
      <trkpt lat="58.85921001434326" lon="16.35038137435913">
        <ele>67.79</ele>
        <time>2025-01-27T10:35:17.178Z</time>
      </trkpt>
      <trkpt lat="58.85897356085479" lon="16.350460164248943">
        <ele>68.16</ele>
        <time>2025-01-27T10:35:26.064Z</time>
      </trkpt>
      <trkpt lat="58.858737191185355" lon="16.350538954138756">
        <ele>68.66</ele>
        <time>2025-01-27T10:35:34.982Z</time>
      </trkpt>
      <trkpt lat="58.85850191116333" lon="16.35061740875244">
        <ele>69.37</ele>
        <time>2025-01-27T10:35:43.932Z</time>
      </trkpt>
      <trkpt lat="58.85823318734765" lon="16.35085386224091">
        <ele>70.07</ele>
        <time>2025-01-27T10:35:52.921Z</time>
      </trkpt>
      <trkpt lat="58.85796546936035" lon="16.351089477539062">
        <ele>70.73</ele>
        <time>2025-01-27T10:36:01.949Z</time>
      </trkpt>
      <trkpt lat="58.8576865196228" lon="16.35111093521118">
        <ele>71.23</ele>
        <time>2025-01-27T10:36:11.015Z</time>
      </trkpt>
      <trkpt lat="58.85753631591797" lon="16.351089477539062">
        <ele>71.68</ele>
        <time>2025-01-27T10:36:20.101Z</time>
      </trkpt>
      <trkpt lat="58.85725686326623" lon="16.35098193772137">
        <ele>72.04</ele>
        <time>2025-01-27T10:36:29.225Z</time>
      </trkpt>
      <trkpt lat="58.85697841644287" lon="16.35087490081787">
        <ele>72.42</ele>
        <time>2025-01-27T10:36:38.387Z</time>
      </trkpt>
      <trkpt lat="58.85687121190131" lon="16.350789070129395">
        <ele>72.81</ele>
        <time>2025-01-27T10:36:47.564Z</time>
      </trkpt>
      <trkpt lat="58.85680675506592" lon="16.35066032409668">
        <ele>73.17</ele>
        <time>2025-01-27T10:36:56.754Z</time>
      </trkpt>
      <trkpt lat="58.85669192299247" lon="16.350315995514393">
        <ele>73.46</ele>
        <time>2025-01-27T10:37:05.972Z</time>
      </trkpt>
      <trkpt lat="58.85657717473805" lon="16.349971750751138">
        <ele>73.71</ele>
        <time>2025-01-27T10:37:15.218Z</time>
      </trkpt>
      <trkpt lat="58.85646343231201" lon="16.34963035583496">
        <ele>73.93</ele>
        <time>2025-01-27T10:37:24.493Z</time>
      </trkpt>
      <trkpt lat="58.85629177093506" lon="16.34937286376953">
        <ele>74.08</ele>
        <time>2025-01-27T10:37:33.797Z</time>
      </trkpt>
      <trkpt lat="58.856120109558105" lon="16.34937286376953">
        <ele>74.25</ele>
        <time>2025-01-27T10:37:43.124Z</time>
      </trkpt>
      <trkpt lat="58.855948112905025" lon="16.34953404776752">
        <ele>74.38</ele>
        <time>2025-01-27T10:37:52.476Z</time>
      </trkpt>
      <trkpt lat="58.8557767868042" lon="16.34969472885132">
        <ele>74.48</ele>
        <time>2025-01-27T10:38:01.854Z</time>
      </trkpt>
      <trkpt lat="58.85549783706665" lon="16.349802017211914">
        <ele>74.54</ele>
        <time>2025-01-27T10:38:11.270Z</time>
      </trkpt>
      <trkpt lat="58.85530438274145" lon="16.349759018048644">
        <ele>74.56</ele>
        <time>2025-01-27T10:38:20.712Z</time>
      </trkpt>
      <trkpt lat="58.855111598968506" lon="16.349716186523438">
        <ele>74.55</ele>
        <time>2025-01-27T10:38:30.180Z</time>
      </trkpt>
      <trkpt lat="58.85486081242561" lon="16.349529856815934">
        <ele>74.51</ele>
        <time>2025-01-27T10:38:39.683Z</time>
      </trkpt>
      <trkpt lat="58.85461002588272" lon="16.34934352710843">
        <ele>74.41</ele>
        <time>2025-01-27T10:38:49.222Z</time>
      </trkpt>
      <trkpt lat="58.854360580444336" lon="16.34915828704834">
        <ele>74.21</ele>
        <time>2025-01-27T10:38:58.797Z</time>
      </trkpt>
      <trkpt lat="58.8544143922627" lon="16.34873852133751">
        <ele>74.12</ele>
        <time>2025-01-27T10:39:08.402Z</time>
      </trkpt>
      <trkpt lat="58.85446786880493" lon="16.348321437835693">
        <ele>73.99</ele>
        <time>2025-01-27T10:39:18.037Z</time>
      </trkpt>
      <trkpt lat="58.85457540862262" lon="16.34778331965208">
        <ele>73.9</ele>
        <time>2025-01-27T10:39:27.712Z</time>
      </trkpt>
      <trkpt lat="58.85468244552612" lon="16.347248554229736">
        <ele>73.74</ele>
        <time>2025-01-27T10:39:37.427Z</time>
      </trkpt>
      <trkpt lat="58.85482585988939" lon="16.34691151790321">
        <ele>73.51</ele>
        <time>2025-01-27T10:39:47.172Z</time>
      </trkpt>
      <trkpt lat="58.85496927425265" lon="16.34657448157668">
        <ele>73.22</ele>
        <time>2025-01-27T10:39:56.947Z</time>
      </trkpt>
      <trkpt lat="58.855111598968506" lon="16.346240043640137">
        <ele>72.89</ele>
        <time>2025-01-27T10:40:06.752Z</time>
      </trkpt>
      <trkpt lat="58.855111598968506" lon="16.346004009246826">
        <ele>72.52</ele>
        <time>2025-01-27T10:40:16.573Z</time>
      </trkpt>
      <trkpt lat="58.85501470416784" lon="16.34573503397405">
        <ele>72.09</ele>
        <time>2025-01-27T10:40:26.417Z</time>
      </trkpt>
      <trkpt lat="58.854918479919434" lon="16.345467567443848">
        <ele>71.64</ele>
        <time>2025-01-27T10:40:36.283Z</time>
      </trkpt>
      <trkpt lat="58.854918479919434" lon="16.34493112564087">
        <ele>71.14</ele>
        <time>2025-01-27T10:40:46.187Z</time>
      </trkpt>
      <trkpt lat="58.85506868362427" lon="16.344501972198486">
        <ele>70.73</ele>
        <time>2025-01-27T10:40:56.127Z</time>
      </trkpt>
      <trkpt lat="58.85509014129639" lon="16.344308853149414">
        <ele>70.28</ele>
        <time>2025-01-27T10:41:06.080Z</time>
      </trkpt>
      <trkpt lat="58.85504722595215" lon="16.344029903411865">
        <ele>69.77</ele>
        <time>2025-01-27T10:41:16.053Z</time>
      </trkpt>
      <trkpt lat="58.85504722595215" lon="16.34387969970703">
        <ele>69.38</ele>
        <time>2025-01-27T10:41:26.037Z</time>
      </trkpt>
      <trkpt lat="58.855111598968506" lon="16.34366512298584">
        <ele>69.0</ele>
        <time>2025-01-27T10:41:36.038Z</time>
      </trkpt>
      <trkpt lat="58.85509014129639" lon="16.343536376953125">
        <ele>68.65</ele>
        <time>2025-01-27T10:41:46.048Z</time>
      </trkpt>
      <trkpt lat="58.85502576828003" lon="16.343300342559814">
        <ele>68.28</ele>
        <time>2025-01-27T10:41:56.077Z</time>
      </trkpt>
      <trkpt lat="58.85509014129639" lon="16.343085765838623">
        <ele>68.07</ele>
        <time>2025-01-27T10:42:06.123Z</time>
      </trkpt>
      <trkpt lat="58.85519742965698" lon="16.342785358428955">
        <ele>67.95</ele>
        <time>2025-01-27T10:42:16.194Z</time>
      </trkpt>
      <trkpt lat="58.855390548706055" lon="16.34242057800293">
        <ele>67.96</ele>
        <time>2025-01-27T10:42:26.301Z</time>
      </trkpt>
      <trkpt lat="58.85538820177317" lon="16.342327538877726">
        <ele>67.95</ele>
        <time>2025-01-27T10:42:36.415Z</time>
      </trkpt>
      <trkpt lat="58.85538778267801" lon="16.342316642403603">
        <ele>67.98</ele>
        <time>2025-01-27T10:42:46.530Z</time>
      </trkpt>
      <trkpt lat="58.85538778267801" lon="16.342315636575222">
        <ele>68.06</ele>
        <time>2025-01-27T10:42:56.645Z</time>
      </trkpt>
      <trkpt lat="58.85538778267801" lon="16.342315385118127">
        <ele>68.18</ele>
        <time>2025-01-27T10:43:06.760Z</time>
      </trkpt>
      <trkpt lat="58.85538778267801" lon="16.342314882203937">
        <ele>68.35</ele>
        <time>2025-01-27T10:43:16.875Z</time>
      </trkpt>
      <trkpt lat="58.855387698858976" lon="16.342310355976224">
        <ele>68.56</ele>
        <time>2025-01-27T10:43:26.990Z</time>
      </trkpt>
      <trkpt lat="58.85537856258452" lon="16.341943563893437">
        <ele>68.92</ele>
        <time>2025-01-27T10:43:37.130Z</time>
      </trkpt>
      <trkpt lat="58.855369091033936" lon="16.341562271118164">
        <ele>69.27</ele>
        <time>2025-01-27T10:43:47.297Z</time>
      </trkpt>
      <trkpt lat="58.85526180267334" lon="16.34141206741333">
        <ele>69.57</ele>
        <time>2025-01-27T10:43:57.482Z</time>
      </trkpt>
      <trkpt lat="58.85510061867535" lon="16.341358339414">
        <ele>69.87</ele>
        <time>2025-01-27T10:44:07.688Z</time>
      </trkpt>
      <trkpt lat="58.85493993759155" lon="16.341304779052734">
        <ele>70.17</ele>
        <time>2025-01-27T10:44:17.916Z</time>
      </trkpt>
      <trkpt lat="58.854854106903076" lon="16.34119749069214">
        <ele>70.49</ele>
        <time>2025-01-27T10:44:28.158Z</time>
      </trkpt>
      <trkpt lat="58.854692755267024" lon="16.340960869565606">
        <ele>70.8</ele>
        <time>2025-01-27T10:44:38.427Z</time>
      </trkpt>
      <trkpt lat="58.85453224182129" lon="16.340725421905518">
        <ele>71.05</ele>
        <time>2025-01-27T10:44:48.723Z</time>
      </trkpt>
      <trkpt lat="58.854403495788574" lon="16.34038209915161">
        <ele>71.28</ele>
        <time>2025-01-27T10:44:59.048Z</time>
      </trkpt>
      <trkpt lat="58.85427474975586" lon="16.3401460647583">
        <ele>71.45</ele>
        <time>2025-01-27T10:45:09.397Z</time>
      </trkpt>
      <trkpt lat="58.854167461395264" lon="16.340060234069824">
        <ele>71.57</ele>
        <time>2025-01-27T10:45:19.762Z</time>
      </trkpt>
      <trkpt lat="58.85404910892248" lon="16.33984507061541">
        <ele>71.65</ele>
        <time>2025-01-27T10:45:30.148Z</time>
      </trkpt>
      <trkpt lat="58.85393142700195" lon="16.33963108062744">
        <ele>71.68</ele>
        <time>2025-01-27T10:45:40.556Z</time>
      </trkpt>
      <trkpt lat="58.85384526103735" lon="16.33923285640776">
        <ele>71.7</ele>
        <time>2025-01-27T10:45:50.994Z</time>
      </trkpt>
      <trkpt lat="58.853759765625" lon="16.338837146759033">
        <ele>71.64</ele>
        <time>2025-01-27T10:46:01.461Z</time>
      </trkpt>
      <trkpt lat="58.85378122329712" lon="16.338535733520985">
        <ele>71.62</ele>
        <time>2025-01-27T10:46:11.950Z</time>
      </trkpt>
      <trkpt lat="58.85380268096924" lon="16.338236331939697">
        <ele>71.61</ele>
        <time>2025-01-27T10:46:22.459Z</time>
      </trkpt>
      <trkpt lat="58.853759765625" lon="16.33789300918579">
        <ele>71.5</ele>
        <time>2025-01-27T10:46:32.993Z</time>
      </trkpt>
      <trkpt lat="58.853631019592285" lon="16.337528228759766">
        <ele>71.31</ele>
        <time>2025-01-27T10:46:43.558Z</time>
      </trkpt>
      <trkpt lat="58.85343739762902" lon="16.337205609306693">
        <ele>71.03</ele>
        <time>2025-01-27T10:46:54.157Z</time>
      </trkpt>
      <trkpt lat="58.85324478149414" lon="16.33688449859619">
        <ele>70.76</ele>
        <time>2025-01-27T10:47:04.790Z</time>
      </trkpt>
      <trkpt lat="58.85313715785742" lon="16.336637064814568">
        <ele>70.49</ele>
        <time>2025-01-27T10:47:15.445Z</time>
      </trkpt>
      <trkpt lat="58.85303020477295" lon="16.33639097213745">
        <ele>70.17</ele>
        <time>2025-01-27T10:47:26.122Z</time>
      </trkpt>
      <trkpt lat="58.852901458740234" lon="16.33594036102295">
        <ele>69.89</ele>
        <time>2025-01-27T10:47:36.835Z</time>
      </trkpt>
      <trkpt lat="58.85281562805176" lon="16.335833072662354">
        <ele>69.6</ele>
        <time>2025-01-27T10:47:47.562Z</time>
      </trkpt>
      <trkpt lat="58.85257959365845" lon="16.33563995361328">
        <ele>69.31</ele>
        <time>2025-01-27T10:47:58.323Z</time>
      </trkpt>
      <trkpt lat="58.85245084762573" lon="16.33516788482666">
        <ele>68.95</ele>
        <time>2025-01-27T10:48:09.121Z</time>
      </trkpt>
      <trkpt lat="58.85242938995361" lon="16.33488893508911">
        <ele>68.6</ele>
        <time>2025-01-27T10:48:19.938Z</time>
      </trkpt>
      <trkpt lat="58.85223627090454" lon="16.334609985351562">
        <ele>68.09</ele>
        <time>2025-01-27T10:48:30.788Z</time>
      </trkpt>
      <trkpt lat="58.8521933555603" lon="16.33445978164673">
        <ele>67.67</ele>
        <time>2025-01-27T10:48:41.650Z</time>
      </trkpt>
      <trkpt lat="58.8521933555603" lon="16.334309577941895">
        <ele>67.29</ele>
        <time>2025-01-27T10:48:52.522Z</time>
      </trkpt>
      <trkpt lat="58.85227918624878" lon="16.33413791656494">
        <ele>66.92</ele>
        <time>2025-01-27T10:49:03.410Z</time>
      </trkpt>
      <trkpt lat="58.85227918624878" lon="16.333773136138916">
        <ele>66.54</ele>
        <time>2025-01-27T10:49:14.324Z</time>
      </trkpt>
      <trkpt lat="58.852386474609375" lon="16.333365440368652">
        <ele>66.21</ele>
        <time>2025-01-27T10:49:25.269Z</time>
      </trkpt>
      <trkpt lat="58.852365016937256" lon="16.33317232131958">
        <ele>65.84</ele>
        <time>2025-01-27T10:49:36.228Z</time>
      </trkpt>
      <trkpt lat="58.8521933555603" lon="16.33289337158203">
        <ele>65.41</ele>
        <time>2025-01-27T10:49:47.217Z</time>
      </trkpt>
      <trkpt lat="58.85208606719971" lon="16.33239984512329">
        <ele>65.06</ele>
        <time>2025-01-27T10:49:58.243Z</time>
      </trkpt>
      <trkpt lat="58.851914405822754" lon="16.332013607025146">
        <ele>64.66</ele>
        <time>2025-01-27T10:50:09.304Z</time>
      </trkpt>
      <trkpt lat="58.85187157429755" lon="16.331841945648193">
        <ele>64.33</ele>
        <time>2025-01-27T10:50:20.379Z</time>
      </trkpt>
      <trkpt lat="58.85169957764447" lon="16.331755947321653">
        <ele>64.0</ele>
        <time>2025-01-27T10:50:31.477Z</time>
      </trkpt>
      <trkpt lat="58.85152816772461" lon="16.33167028427124">
        <ele>63.7</ele>
        <time>2025-01-27T10:50:42.599Z</time>
      </trkpt>
      <trkpt lat="58.85133462958038" lon="16.33141220547259">
        <ele>63.45</ele>
        <time>2025-01-27T10:50:53.752Z</time>
      </trkpt>
      <trkpt lat="58.8511420134455" lon="16.33115530014038">
        <ele>63.28</ele>
        <time>2025-01-27T10:51:04.937Z</time>
      </trkpt>
      <trkpt lat="58.85120630264282" lon="16.331048011779785">
        <ele>63.11</ele>
        <time>2025-01-27T10:51:16.133Z</time>
      </trkpt>
      <trkpt lat="58.85124921798706" lon="16.330747604370117">
        <ele>62.96</ele>
        <time>2025-01-27T10:51:27.351Z</time>
      </trkpt>
      <trkpt lat="58.85124921798706" lon="16.33042573928833">
        <ele>62.82</ele>
        <time>2025-01-27T10:51:38.591Z</time>
      </trkpt>
      <trkpt lat="58.85120613500476" lon="16.329903630539775">
        <ele>62.74</ele>
        <time>2025-01-27T10:51:49.868Z</time>
      </trkpt>
      <trkpt lat="58.85116305202246" lon="16.32938160561025">
        <ele>62.67</ele>
        <time>2025-01-27T10:52:01.181Z</time>
      </trkpt>
      <trkpt lat="58.85112005285919" lon="16.328859580680728">
        <ele>62.67</ele>
        <time>2025-01-27T10:52:12.531Z</time>
      </trkpt>
      <trkpt lat="58.85107755661011" lon="16.328344345092773">
        <ele>62.68</ele>
        <time>2025-01-27T10:52:23.917Z</time>
      </trkpt>
      <trkpt lat="58.850948475301266" lon="16.32808618247509">
        <ele>62.75</ele>
        <time>2025-01-27T10:52:35.328Z</time>
      </trkpt>
      <trkpt lat="58.85082006454468" lon="16.327829360961914">
        <ele>62.81</ele>
        <time>2025-01-27T10:52:46.764Z</time>
      </trkpt>
      <trkpt lat="58.85065544396639" lon="16.327644204720855">
        <ele>62.84</ele>
        <time>2025-01-27T10:52:58.225Z</time>
      </trkpt>
      <trkpt lat="58.850491577759385" lon="16.32745980285108">
        <ele>62.81</ele>
        <time>2025-01-27T10:53:09.711Z</time>
      </trkpt>
      <trkpt lat="58.85048981755972" lon="16.32745586335659">
        <ele>62.81</ele>
        <time>2025-01-27T10:53:21.198Z</time>
      </trkpt>
      <trkpt lat="58.85048747062683" lon="16.327452594414353">
        <ele>62.79</ele>
        <time>2025-01-27T10:53:32.685Z</time>
      </trkpt>
      <trkpt lat="58.85048705153167" lon="16.3274519238621">
        <ele>62.74</ele>
        <time>2025-01-27T10:53:44.172Z</time>
      </trkpt>
      <trkpt lat="58.85048696771264" lon="16.327451756224036">
        <ele>62.66</ele>
        <time>2025-01-27T10:53:55.659Z</time>
      </trkpt>
      <trkpt lat="58.85048680007458" lon="16.32745150476694">
        <ele>62.55</ele>
        <time>2025-01-27T10:54:07.146Z</time>
      </trkpt>
      <trkpt lat="58.85048680007458" lon="16.32745142094791">
        <ele>62.39</ele>
        <time>2025-01-27T10:54:18.633Z</time>
      </trkpt>
      <trkpt lat="58.85048495605588" lon="16.327448738738894">
        <ele>62.2</ele>
        <time>2025-01-27T10:54:30.121Z</time>
      </trkpt>
      <trkpt lat="58.85048411786556" lon="16.32744756527245">
        <ele>61.95</ele>
        <time>2025-01-27T10:54:41.609Z</time>
      </trkpt>
      <trkpt lat="58.85048411786556" lon="16.32744748145342">
        <ele>61.65</ele>
        <time>2025-01-27T10:54:53.097Z</time>
      </trkpt>
      <trkpt lat="58.8504839502275" lon="16.327447229996324">
        <ele>61.3</ele>
        <time>2025-01-27T10:55:04.585Z</time>
      </trkpt>
      <trkpt lat="58.8504839502275" lon="16.327447146177292">
        <ele>60.9</ele>
        <time>2025-01-27T10:55:16.073Z</time>
      </trkpt>
      <trkpt lat="58.8504839502275" lon="16.32744706235826">
        <ele>60.43</ele>
        <time>2025-01-27T10:55:27.561Z</time>
      </trkpt>
      <trkpt lat="58.850483782589436" lon="16.327446810901165">
        <ele>59.91</ele>
        <time>2025-01-27T10:55:39.049Z</time>
      </trkpt>
      <trkpt lat="58.8504839502275" lon="16.32744697853923">
        <ele>59.34</ele>
        <time>2025-01-27T10:55:50.537Z</time>
      </trkpt>
      <trkpt lat="58.85048386640847" lon="16.32744655944407">
        <ele>58.72</ele>
        <time>2025-01-27T10:56:02.025Z</time>
      </trkpt>
      <trkpt lat="58.85042795911431" lon="16.32716895081103">
        <ele>58.0</ele>
        <time>2025-01-27T10:56:13.533Z</time>
      </trkpt>
      <trkpt lat="58.85036174207926" lon="16.326783215627074">
        <ele>57.18</ele>
        <time>2025-01-27T10:56:25.070Z</time>
      </trkpt>
      <trkpt lat="58.85029594413936" lon="16.32639999501407">
        <ele>56.32</ele>
        <time>2025-01-27T10:56:36.635Z</time>
      </trkpt>
      <trkpt lat="58.85025093331933" lon="16.326198996976018">
        <ele>55.49</ele>
        <time>2025-01-27T10:56:48.215Z</time>
      </trkpt>
      <trkpt lat="58.85018999688327" lon="16.325983917340636">
        <ele>54.64</ele>
        <time>2025-01-27T10:56:59.812Z</time>
      </trkpt>
      <trkpt lat="58.850153954699636" lon="16.325748972594738">
        <ele>53.81</ele>
        <time>2025-01-27T10:57:11.426Z</time>
      </trkpt>
      <trkpt lat="58.85014699772" lon="16.325292997062206">
        <ele>53.0</ele>
        <time>2025-01-27T10:57:23.071Z</time>
      </trkpt>
      <trkpt lat="58.85010693222284" lon="16.324907932430506">
        <ele>52.22</ele>
        <time>2025-01-27T10:57:34.744Z</time>
      </trkpt>
      <trkpt lat="58.85000794194639" lon="16.324434941634536">
        <ele>51.49</ele>
        <time>2025-01-27T10:57:46.452Z</time>
      </trkpt>
      <trkpt lat="58.84993493556976" lon="16.324276942759752">
        <ele>50.78</ele>
        <time>2025-01-27T10:57:58.175Z</time>
      </trkpt>
      <trkpt lat="58.849813984707" lon="16.324163954705">
        <ele>50.08</ele>
        <time>2025-01-27T10:58:09.915Z</time>
      </trkpt>
      <trkpt lat="58.84964693337679" lon="16.32414693944156">
        <ele>49.47</ele>
        <time>2025-01-27T10:58:21.678Z</time>
      </trkpt>
      <trkpt lat="58.8495359569788" lon="16.32418499328196">
        <ele>48.92</ele>
        <time>2025-01-27T10:58:33.456Z</time>
      </trkpt>
      <trkpt lat="58.84946093894541" lon="16.32422899827361">
        <ele>48.43</ele>
        <time>2025-01-27T10:58:45.244Z</time>
      </trkpt>
      <trkpt lat="58.84924191981554" lon="16.324409963563085">
        <ele>47.99</ele>
        <time>2025-01-27T10:58:57.064Z</time>
      </trkpt>
      <trkpt lat="58.8490869384259" lon="16.324522951617837">
        <ele>47.64</ele>
        <time>2025-01-27T10:59:08.906Z</time>
      </trkpt>
      <trkpt lat="58.8489159476012" lon="16.32461791858077">
        <ele>47.44</ele>
        <time>2025-01-27T10:59:20.772Z</time>
      </trkpt>
      <trkpt lat="58.84883992373943" lon="16.32465496659279">
        <ele>47.32</ele>
        <time>2025-01-27T10:59:32.649Z</time>
      </trkpt>
      <trkpt lat="58.84870598092675" lon="16.324650943279266">
        <ele>47.3</ele>
        <time>2025-01-27T10:59:44.544Z</time>
      </trkpt>
      <trkpt lat="58.848549742251635" lon="16.324564777314663">
        <ele>47.33</ele>
        <time>2025-01-27T10:59:56.460Z</time>
      </trkpt>
      <trkpt lat="58.848393922671676" lon="16.324478946626186">
        <ele>47.44</ele>
        <time>2025-01-27T11:00:08.398Z</time>
      </trkpt>
      <trkpt lat="58.84820591658354" lon="16.32435598410666">
        <ele>47.66</ele>
        <time>2025-01-27T11:00:20.362Z</time>
      </trkpt>
      <trkpt lat="58.848024951294065" lon="16.324266968294978">
        <ele>47.97</ele>
        <time>2025-01-27T11:00:32.351Z</time>
      </trkpt>
      <trkpt lat="58.8478712271899" lon="16.324180802330375">
        <ele>48.33</ele>
        <time>2025-01-27T11:00:44.362Z</time>
      </trkpt>
      <trkpt lat="58.84771792218089" lon="16.324094971641898">
        <ele>48.75</ele>
        <time>2025-01-27T11:00:56.394Z</time>
      </trkpt>
      <trkpt lat="58.847573921084404" lon="16.324006961658597">
        <ele>49.22</ele>
        <time>2025-01-27T11:01:08.446Z</time>
      </trkpt>
      <trkpt lat="58.847485994920135" lon="16.323899924755096">
        <ele>49.72</ele>
        <time>2025-01-27T11:01:20.512Z</time>
      </trkpt>
      <trkpt lat="58.84741994552314" lon="16.3237979169935">
        <ele>50.24</ele>
        <time>2025-01-27T11:01:32.590Z</time>
      </trkpt>
      <trkpt lat="58.84734299965203" lon="16.323719965294003">
        <ele>50.79</ele>
        <time>2025-01-27T11:01:44.679Z</time>
      </trkpt>
      <trkpt lat="58.847269993275404" lon="16.323661962524056">
        <ele>51.36</ele>
        <time>2025-01-27T11:01:56.779Z</time>
      </trkpt>
      <trkpt lat="58.84708994999528" lon="16.323571940883994">
        <ele>51.98</ele>
        <time>2025-01-27T11:02:08.904Z</time>
      </trkpt>
      <trkpt lat="58.846909990534186" lon="16.323506981134415">
        <ele>52.55</ele>
        <time>2025-01-27T11:02:21.053Z</time>
      </trkpt>
      <trkpt lat="58.84661494754255" lon="16.323427939787507">
        <ele>53.14</ele>
        <time>2025-01-27T11:02:33.242Z</time>
      </trkpt>
      <trkpt lat="58.846499947831035" lon="16.323406985029578">
        <ele>53.71</ele>
        <time>2025-01-27T11:02:45.446Z</time>
      </trkpt>
      <trkpt lat="58.846394922584295" lon="16.323399944230914">
        <ele>54.31</ele>
        <time>2025-01-27T11:02:57.664Z</time>
      </trkpt>
      <trkpt lat="58.846328957006335" lon="16.32341092452407">
        <ele>54.9</ele>
        <time>2025-01-27T11:03:09.891Z</time>
      </trkpt>
      <trkpt lat="58.846241952851415" lon="16.323531959205866">
        <ele>55.51</ele>
        <time>2025-01-27T11:03:22.133Z</time>
      </trkpt>
      <trkpt lat="58.84617095813155" lon="16.323742931708694">
        <ele>56.06</ele>
        <time>2025-01-27T11:03:34.392Z</time>
      </trkpt>
      <trkpt lat="58.84610893204808" lon="16.32414098829031">
        <ele>56.62</ele>
        <time>2025-01-27T11:03:46.680Z</time>
      </trkpt>
      <trkpt lat="58.846076996997" lon="16.324389930814505">
        <ele>57.15</ele>
        <time>2025-01-27T11:03:58.986Z</time>
      </trkpt>
      <trkpt lat="58.84597398340702" lon="16.324749933555722">
        <ele>57.67</ele>
        <time>2025-01-27T11:04:11.320Z</time>
      </trkpt>
      <trkpt lat="58.84589293040335" lon="16.324943974614143">
        <ele>58.19</ele>
        <time>2025-01-27T11:04:23.671Z</time>
      </trkpt>
      <trkpt lat="58.845638958737254" lon="16.3252829387784">
        <ele>58.77</ele>
        <time>2025-01-27T11:04:36.064Z</time>
      </trkpt>
      <trkpt lat="58.845425974577665" lon="16.3255419395864">
        <ele>59.33</ele>
        <time>2025-01-27T11:04:48.490Z</time>
      </trkpt>
      <trkpt lat="58.84530896320939" lon="16.325697926804423">
        <ele>59.91</ele>
        <time>2025-01-27T11:05:00.935Z</time>
      </trkpt>
      <trkpt lat="58.845103941857815" lon="16.325895991176367">
        <ele>60.5</ele>
        <time>2025-01-27T11:05:13.411Z</time>
      </trkpt>
      <trkpt lat="58.84490495547652" lon="16.326062958687544">
        <ele>61.1</ele>
        <time>2025-01-27T11:05:25.916Z</time>
      </trkpt>
      <trkpt lat="58.844655929133296" lon="16.326321959495544">
        <ele>61.75</ele>
        <time>2025-01-27T11:05:38.459Z</time>
      </trkpt>
      <trkpt lat="58.84440899826586" lon="16.326599987223744">
        <ele>62.55</ele>
        <time>2025-01-27T11:05:51.040Z</time>
      </trkpt>
      <trkpt lat="58.844348983839154" lon="16.326733930036426">
        <ele>63.22</ele>
        <time>2025-01-27T11:06:03.633Z</time>
      </trkpt>
      <trkpt lat="58.84431797079742" lon="16.32686795666814">
        <ele>63.89</ele>
        <time>2025-01-27T11:06:16.236Z</time>
      </trkpt>
      <trkpt lat="58.84427396580577" lon="16.327134920284152">
        <ele>64.61</ele>
        <time>2025-01-27T11:06:28.859Z</time>
      </trkpt>
      <trkpt lat="58.84425393305719" lon="16.32729895412922">
        <ele>65.24</ele>
        <time>2025-01-27T11:06:41.493Z</time>
      </trkpt>
      <trkpt lat="58.84420892223716" lon="16.327440943568945">
        <ele>65.87</ele>
        <time>2025-01-27T11:06:54.139Z</time>
      </trkpt>
      <trkpt lat="58.84414396248758" lon="16.32755795493722">
        <ele>66.53</ele>
        <time>2025-01-27T11:07:06.797Z</time>
      </trkpt>
      <trkpt lat="58.844049917533994" lon="16.327647976577282">
        <ele>67.14</ele>
        <time>2025-01-27T11:07:19.469Z</time>
      </trkpt>
      <trkpt lat="58.84387196972966" lon="16.32777194492519">
        <ele>67.75</ele>
        <time>2025-01-27T11:07:32.166Z</time>
      </trkpt>
      <trkpt lat="58.843794940039515" lon="16.327867917716503">
        <ele>68.31</ele>
        <time>2025-01-27T11:07:44.875Z</time>
      </trkpt>
      <trkpt lat="58.843708941712976" lon="16.32801191881299">
        <ele>68.85</ele>
        <time>2025-01-27T11:07:57.600Z</time>
      </trkpt>
      <trkpt lat="58.84357298724353" lon="16.328337974846363">
        <ele>69.36</ele>
        <time>2025-01-27T11:08:10.354Z</time>
      </trkpt>
      <trkpt lat="58.84354398585856" lon="16.328491950407624">
        <ele>69.82</ele>
        <time>2025-01-27T11:08:23.119Z</time>
      </trkpt>
      <trkpt lat="58.843362936750054" lon="16.328362952917814">
        <ele>70.16</ele>
        <time>2025-01-27T11:08:35.910Z</time>
      </trkpt>
      <trkpt lat="58.84317493066192" lon="16.328295981511474">
        <ele>70.48</ele>
        <time>2025-01-27T11:08:48.726Z</time>
      </trkpt>
      <trkpt lat="58.84305096231401" lon="16.32844291627407">
        <ele>70.84</ele>
        <time>2025-01-27T11:09:01.562Z</time>
      </trkpt>
      <trkpt lat="58.842914924025536" lon="16.328625977039337">
        <ele>71.17</ele>
        <time>2025-01-27T11:09:14.420Z</time>
      </trkpt>
      <trkpt lat="58.842846946790814" lon="16.328677944839">
        <ele>71.48</ele>
        <time>2025-01-27T11:09:27.288Z</time>
      </trkpt>
      <trkpt lat="58.84268693625927" lon="16.32884591817856">
        <ele>71.79</ele>
        <time>2025-01-27T11:09:40.180Z</time>
      </trkpt>
      <trkpt lat="58.842528937384486" lon="16.3289749994874">
        <ele>72.08</ele>
        <time>2025-01-27T11:09:53.095Z</time>
      </trkpt>
      <trkpt lat="58.842485938221216" lon="16.32889193482697">
        <ele>72.31</ele>
        <time>2025-01-27T11:10:06.018Z</time>
      </trkpt>
      <trkpt lat="58.84249398484826" lon="16.32876494899392">
        <ele>72.49</ele>
        <time>2025-01-27T11:10:18.950Z</time>
      </trkpt>
      <trkpt lat="58.84243195876479" lon="16.328679956495762">
        <ele>72.68</ele>
        <time>2025-01-27T11:10:31.892Z</time>
      </trkpt>
      <trkpt lat="58.842351995408535" lon="16.32867895066738">
        <ele>72.86</ele>
        <time>2025-01-27T11:10:44.845Z</time>
      </trkpt>
      <trkpt lat="58.84229994378984" lon="16.328692948445678">
        <ele>73.03</ele>
        <time>2025-01-27T11:10:57.805Z</time>
      </trkpt>
      <trkpt lat="58.84212099015713" lon="16.32886695675552">
        <ele>73.22</ele>
        <time>2025-01-27T11:11:10.792Z</time>
      </trkpt>
      <trkpt lat="58.84184991940856" lon="16.328638968989253">
        <ele>73.34</ele>
        <time>2025-01-27T11:11:23.818Z</time>
      </trkpt>
      <trkpt lat="58.84173894301057" lon="16.328641986474395">
        <ele>73.42</ele>
        <time>2025-01-27T11:11:36.859Z</time>
      </trkpt>
      <trkpt lat="58.841538950800896" lon="16.32869596593082">
        <ele>73.48</ele>
        <time>2025-01-27T11:11:49.927Z</time>
      </trkpt>
      <trkpt lat="58.84144297800958" lon="16.328786993399262">
        <ele>73.55</ele>
        <time>2025-01-27T11:12:03.009Z</time>
      </trkpt>
      <trkpt lat="58.84136997163296" lon="16.32891297340393">
        <ele>73.53</ele>
        <time>2025-01-27T11:12:16.104Z</time>
      </trkpt>
      <trkpt lat="58.8413349352777" lon="16.32901498116553">
        <ele>73.47</ele>
        <time>2025-01-27T11:12:29.208Z</time>
      </trkpt>
      <trkpt lat="58.84118095971644" lon="16.329185971990228">
        <ele>73.39</ele>
        <time>2025-01-27T11:12:42.336Z</time>
      </trkpt>
      <trkpt lat="58.84099471382797" lon="16.329240035265684">
        <ele>73.28</ele>
        <time>2025-01-27T11:12:55.489Z</time>
      </trkpt>
      <trkpt lat="58.840808970853686" lon="16.329293930903077">
        <ele>73.11</ele>
        <time>2025-01-27T11:13:08.667Z</time>
      </trkpt>
      <trkpt lat="58.840636974200606" lon="16.329285968095064">
        <ele>72.95</ele>
        <time>2025-01-27T11:13:21.868Z</time>
      </trkpt>
      <trkpt lat="58.84047092869878" lon="16.329250931739807">
        <ele>72.73</ele>
        <time>2025-01-27T11:13:35.091Z</time>
      </trkpt>
      <trkpt lat="58.840356934815645" lon="16.329030990600586">
        <ele>72.49</ele>
        <time>2025-01-27T11:13:48.336Z</time>
      </trkpt>
      <trkpt lat="58.84019197896123" lon="16.32889394648373">
        <ele>72.17</ele>
        <time>2025-01-27T11:14:01.605Z</time>
      </trkpt>
      <trkpt lat="58.840100951492786" lon="16.328917918726802">
        <ele>71.86</ele>
        <time>2025-01-27T11:14:14.886Z</time>
      </trkpt>
      <trkpt lat="58.840031968429685" lon="16.328941974788904">
        <ele>71.55</ele>
        <time>2025-01-27T11:14:28.176Z</time>
      </trkpt>
      <trkpt lat="58.83994194678962" lon="16.329035935923457">
        <ele>71.21</ele>
        <time>2025-01-27T11:14:41.480Z</time>
      </trkpt>
      <trkpt lat="58.83979291655123" lon="16.329290997236967">
        <ele>70.8</ele>
        <time>2025-01-27T11:14:54.811Z</time>
      </trkpt>
      <trkpt lat="58.83950692601502" lon="16.329526947811246">
        <ele>70.37</ele>
        <time>2025-01-27T11:15:08.183Z</time>
      </trkpt>
      <trkpt lat="58.83940299041569" lon="16.32962392643094">
        <ele>69.9</ele>
        <time>2025-01-27T11:15:21.571Z</time>
      </trkpt>
      <trkpt lat="58.83934096433222" lon="16.32966692559421">
        <ele>69.39</ele>
        <time>2025-01-27T11:15:34.968Z</time>
      </trkpt>
      <trkpt lat="58.839259995147586" lon="16.329765999689698">
        <ele>68.85</ele>
        <time>2025-01-27T11:15:48.377Z</time>
      </trkpt>
      <trkpt lat="58.83910099044442" lon="16.329631973057985">
        <ele>68.28</ele>
        <time>2025-01-27T11:16:01.810Z</time>
      </trkpt>
      <trkpt lat="58.83902898989618" lon="16.329314969480038">
        <ele>67.64</ele>
        <time>2025-01-27T11:16:15.267Z</time>
      </trkpt>
      <trkpt lat="58.83896897546947" lon="16.329207932576537">
        <ele>66.94</ele>
        <time>2025-01-27T11:16:28.735Z</time>
      </trkpt>
      <trkpt lat="58.838911978527904" lon="16.329140961170197">
        <ele>66.15</ele>
        <time>2025-01-27T11:16:42.211Z</time>
      </trkpt>
      <trkpt lat="58.838851964101195" lon="16.32910299114883">
        <ele>65.3</ele>
        <time>2025-01-27T11:16:55.696Z</time>
      </trkpt>
      <trkpt lat="58.83872598409653" lon="16.32908396422863">
        <ele>64.39</ele>
        <time>2025-01-27T11:17:09.198Z</time>
      </trkpt>
      <trkpt lat="58.83858692832291" lon="16.3290389534086">
        <ele>63.36</ele>
        <time>2025-01-27T11:17:22.719Z</time>
      </trkpt>
      <trkpt lat="58.8385459408164" lon="16.328963935375214">
        <ele>62.34</ele>
        <time>2025-01-27T11:17:36.247Z</time>
      </trkpt>
      <trkpt lat="58.8384719286114" lon="16.328858993947506">
        <ele>61.27</ele>
        <time>2025-01-27T11:17:49.787Z</time>
      </trkpt>
      <trkpt lat="58.83836497552693" lon="16.328746927902102">
        <ele>60.12</ele>
        <time>2025-01-27T11:18:03.344Z</time>
      </trkpt>
      <trkpt lat="58.83817395195365" lon="16.32859094068408">
        <ele>58.84</ele>
        <time>2025-01-27T11:18:16.928Z</time>
      </trkpt>
      <trkpt lat="58.83807932026684" lon="16.328553054481745">
        <ele>57.73</ele>
        <time>2025-01-27T11:18:30.525Z</time>
      </trkpt>
      <trkpt lat="58.83807395584881" lon="16.328550959005952">
        <ele>56.75</ele>
        <time>2025-01-27T11:18:44.123Z</time>
      </trkpt>
      <trkpt lat="58.837857116013765" lon="16.328535955399275">
        <ele>55.59</ele>
        <time>2025-01-27T11:18:57.750Z</time>
      </trkpt>
      <trkpt lat="58.83764094673097" lon="16.328520951792598">
        <ele>54.6</ele>
        <time>2025-01-27T11:19:11.406Z</time>
      </trkpt>
      <trkpt lat="58.83748898282647" lon="16.328472923487425">
        <ele>53.73</ele>
        <time>2025-01-27T11:19:25.083Z</time>
      </trkpt>
      <trkpt lat="58.83731598034501" lon="16.328660929575562">
        <ele>52.92</ele>
        <time>2025-01-27T11:19:38.786Z</time>
      </trkpt>
      <trkpt lat="58.837216990068555" lon="16.328861927613616">
        <ele>52.16</ele>
        <time>2025-01-27T11:19:52.508Z</time>
      </trkpt>
      <trkpt lat="58.8370299898088" lon="16.329293930903077">
        <ele>51.49</ele>
        <time>2025-01-27T11:20:06.269Z</time>
      </trkpt>
      <trkpt lat="58.83701389655471" lon="16.329631553962827">
        <ele>50.88</ele>
        <time>2025-01-27T11:20:20.054Z</time>
      </trkpt>
      <trkpt lat="58.83699797093868" lon="16.32996699772775">
        <ele>50.4</ele>
        <time>2025-01-27T11:20:33.862Z</time>
      </trkpt>
      <trkpt lat="58.83697492070496" lon="16.33036128245294">
        <ele>49.98</ele>
        <time>2025-01-27T11:20:47.698Z</time>
      </trkpt>
      <trkpt lat="58.83695195429027" lon="16.330752968788147">
        <ele>49.69</ele>
        <time>2025-01-27T11:21:01.561Z</time>
      </trkpt>
      <trkpt lat="58.836811976507306" lon="16.33125697262585">
        <ele>49.45</ele>
        <time>2025-01-27T11:21:15.464Z</time>
      </trkpt>
      <trkpt lat="58.83677593432367" lon="16.33142595179379">
        <ele>49.17</ele>
        <time>2025-01-27T11:21:29.379Z</time>
      </trkpt>
      <trkpt lat="58.83663662709296" lon="16.331748822703958">
        <ele>48.87</ele>
        <time>2025-01-27T11:21:43.323Z</time>
      </trkpt>
      <trkpt lat="58.8364979904145" lon="16.33206993341446">
        <ele>48.58</ele>
        <time>2025-01-27T11:21:57.296Z</time>
      </trkpt>
      <trkpt lat="58.83644610643387" lon="16.332508390769362">
        <ele>48.33</ele>
        <time>2025-01-27T11:22:11.301Z</time>
      </trkpt>
      <trkpt lat="58.83639430627227" lon="16.332946764305234">
        <ele>48.11</ele>
        <time>2025-01-27T11:22:25.337Z</time>
      </trkpt>
      <trkpt lat="58.83634292520583" lon="16.33338094688952">
        <ele>48.12</ele>
        <time>2025-01-27T11:22:39.404Z</time>
      </trkpt>
      <trkpt lat="58.83632892742753" lon="16.333954939618707">
        <ele>48.01</ele>
        <time>2025-01-27T11:22:53.510Z</time>
      </trkpt>
      <trkpt lat="58.836221136152744" lon="16.334274373948574">
        <ele>47.89</ele>
        <time>2025-01-27T11:23:07.643Z</time>
      </trkpt>
      <trkpt lat="58.83611393161118" lon="16.334591964259744">
        <ele>47.83</ele>
        <time>2025-01-27T11:23:21.802Z</time>
      </trkpt>
      <trkpt lat="58.83602097630501" lon="16.33509596809745">
        <ele>47.89</ele>
        <time>2025-01-27T11:23:35.998Z</time>
      </trkpt>
      <trkpt lat="58.83600999601185" lon="16.335323955863714">
        <ele>47.96</ele>
        <time>2025-01-27T11:23:50.210Z</time>
      </trkpt>
      <trkpt lat="58.8359694276005" lon="16.335424538701773">
        <ele>48.01</ele>
        <time>2025-01-27T11:24:04.431Z</time>
      </trkpt>
      <trkpt lat="58.83585752919316" lon="16.33570298552513">
        <ele>48.09</ele>
        <time>2025-01-27T11:24:18.676Z</time>
      </trkpt>
      <trkpt lat="58.83570598438382" lon="16.336079919710755">
        <ele>48.24</ele>
        <time>2025-01-27T11:24:32.954Z</time>
      </trkpt>
      <trkpt lat="58.83556961081922" lon="16.336383763700724">
        <ele>48.33</ele>
        <time>2025-01-27T11:24:47.260Z</time>
      </trkpt>
      <trkpt lat="58.835433991625905" lon="16.336685931310058">
        <ele>48.34</ele>
        <time>2025-01-27T11:25:01.594Z</time>
      </trkpt>
      <trkpt lat="58.83532494306564" lon="16.336682997643948">
        <ele>48.29</ele>
        <time>2025-01-27T11:25:15.942Z</time>
      </trkpt>
      <trkpt lat="58.835198963060975" lon="16.33686195127666">
        <ele>48.27</ele>
        <time>2025-01-27T11:25:30.311Z</time>
      </trkpt>
      <trkpt lat="58.83508496917784" lon="16.33713997900486">
        <ele>48.26</ele>
        <time>2025-01-27T11:25:44.705Z</time>
      </trkpt>
      <trkpt lat="58.83503492921591" lon="16.337349945679307">
        <ele>48.23</ele>
        <time>2025-01-27T11:25:59.115Z</time>
      </trkpt>
      <trkpt lat="58.83491791784763" lon="16.337771974503994">
        <ele>48.15</ele>
        <time>2025-01-27T11:26:13.558Z</time>
      </trkpt>
      <trkpt lat="58.83486695587635" lon="16.338178999722004">
        <ele>48.1</ele>
        <time>2025-01-27T11:26:28.030Z</time>
      </trkpt>
      <trkpt lat="58.834893023595214" lon="16.338617876172066">
        <ele>48.06</ele>
        <time>2025-01-27T11:26:42.533Z</time>
      </trkpt>
      <trkpt lat="58.834918923676014" lon="16.33905398659408">
        <ele>48.03</ele>
        <time>2025-01-27T11:26:57.066Z</time>
      </trkpt>
      <trkpt lat="58.834873996675014" lon="16.339389933273196">
        <ele>47.97</ele>
        <time>2025-01-27T11:27:11.623Z</time>
      </trkpt>
      <trkpt lat="58.83488891646266" lon="16.339745996519923">
        <ele>47.93</ele>
        <time>2025-01-27T11:27:26.205Z</time>
      </trkpt>
      <trkpt lat="58.834983967244625" lon="16.33995294570923">
        <ele>47.92</ele>
        <time>2025-01-27T11:27:40.806Z</time>
      </trkpt>
      <trkpt lat="58.835131991654634" lon="16.340110944584012">
        <ele>47.91</ele>
        <time>2025-01-27T11:27:55.430Z</time>
      </trkpt>
      <trkpt lat="58.83531597442925" lon="16.340261986479163">
        <ele>47.92</ele>
        <time>2025-01-27T11:28:10.080Z</time>
      </trkpt>
      <trkpt lat="58.835394931957126" lon="16.340271960943937">
        <ele>47.91</ele>
        <time>2025-01-27T11:28:24.741Z</time>
      </trkpt>
      <trkpt lat="58.8354619871825" lon="16.340349996462464">
        <ele>47.86</ele>
        <time>2025-01-27T11:28:39.412Z</time>
      </trkpt>
      <trkpt lat="58.83547095581889" lon="16.34053196758032">
        <ele>47.82</ele>
        <time>2025-01-27T11:28:54.096Z</time>
      </trkpt>
      <trkpt lat="58.835564916953444" lon="16.340635986998677">
        <ele>47.8</ele>
        <time>2025-01-27T11:29:08.795Z</time>
      </trkpt>
      <trkpt lat="58.835786283016205" lon="16.34074662812054">
        <ele>47.78</ele>
        <time>2025-01-27T11:29:23.524Z</time>
      </trkpt>
      <trkpt lat="58.83600697852671" lon="16.34085693396628">
        <ele>47.79</ele>
        <time>2025-01-27T11:29:38.284Z</time>
      </trkpt>
      <trkpt lat="58.83615994825959" lon="16.34115792810917">
        <ele>47.8</ele>
        <time>2025-01-27T11:29:53.073Z</time>
      </trkpt>
      <trkpt lat="58.83612994104624" lon="16.34152295999229">
        <ele>47.92</ele>
        <time>2025-01-27T11:30:07.888Z</time>
      </trkpt>
      <trkpt lat="58.83609792217612" lon="16.341726975515485">
        <ele>48.1</ele>
        <time>2025-01-27T11:30:22.717Z</time>
      </trkpt>
      <trkpt lat="58.83598996326327" lon="16.34223299100995">
        <ele>48.35</ele>
        <time>2025-01-27T11:30:37.584Z</time>
      </trkpt>
      <trkpt lat="58.83593698963523" lon="16.342390989884734">
        <ele>48.66</ele>
        <time>2025-01-27T11:30:52.464Z</time>
      </trkpt>
      <trkpt lat="58.83587697520852" lon="16.342483945190907">
        <ele>49.0</ele>
        <time>2025-01-27T11:31:07.355Z</time>
      </trkpt>
      <trkpt lat="58.83581293746829" lon="16.342560974881053">
        <ele>49.38</ele>
        <time>2025-01-27T11:31:22.256Z</time>
      </trkpt>
      <trkpt lat="58.83557698689401" lon="16.34274898096919">
        <ele>49.86</ele>
        <time>2025-01-27T11:31:37.191Z</time>
      </trkpt>
      <trkpt lat="58.83549392223358" lon="16.342794997617602">
        <ele>50.33</ele>
        <time>2025-01-27T11:31:52.137Z</time>
      </trkpt>
      <trkpt lat="58.83519594557583" lon="16.342966742813587">
        <ele>51.01</ele>
        <time>2025-01-27T11:32:07.125Z</time>
      </trkpt>
      <trkpt lat="58.834898974746466" lon="16.34313798509538">
        <ele>51.72</ele>
        <time>2025-01-27T11:32:22.154Z</time>
      </trkpt>
      <trkpt lat="58.83488682098687" lon="16.343151899054646">
        <ele>52.14</ele>
        <time>2025-01-27T11:32:37.185Z</time>
      </trkpt>
      <trkpt lat="58.83481993339956" lon="16.343228928744793">
        <ele>52.57</ele>
        <time>2025-01-27T11:32:52.227Z</time>
      </trkpt>
      <trkpt lat="58.834723960608244" lon="16.34337494149804">
        <ele>52.89</ele>
        <time>2025-01-27T11:33:07.285Z</time>
      </trkpt>
      <trkpt lat="58.83464994840324" lon="16.343508968129754">
        <ele>53.2</ele>
        <time>2025-01-27T11:33:22.357Z</time>
      </trkpt>
      <trkpt lat="58.83456596173346" lon="16.34371499530971">
        <ele>53.45</ele>
        <time>2025-01-27T11:33:37.447Z</time>
      </trkpt>
      <trkpt lat="58.83444492705166" lon="16.343948934227228">
        <ele>53.58</ele>
        <time>2025-01-27T11:33:52.560Z</time>
      </trkpt>
      <trkpt lat="58.8343361299485" lon="16.34414590895176">
        <ele>53.66</ele>
        <time>2025-01-27T11:34:07.693Z</time>
      </trkpt>
      <trkpt lat="58.83433436974883" lon="16.344149261713028">
        <ele>53.77</ele>
        <time>2025-01-27T11:34:22.826Z</time>
      </trkpt>
      <trkpt lat="58.834332106634974" lon="16.344152949750423">
        <ele>53.84</ele>
        <time>2025-01-27T11:34:37.959Z</time>
      </trkpt>
      <trkpt lat="58.83433177135885" lon="16.344153620302677">
        <ele>53.85</ele>
        <time>2025-01-27T11:34:53.092Z</time>
      </trkpt>
      <trkpt lat="58.834331687539816" lon="16.344153871759772">
        <ele>53.83</ele>
        <time>2025-01-27T11:35:08.225Z</time>
      </trkpt>
      <trkpt lat="58.83433151990175" lon="16.3441542070359">
        <ele>53.76</ele>
        <time>2025-01-27T11:35:23.358Z</time>
      </trkpt>
      <trkpt lat="58.83433151990175" lon="16.34415429085493">
        <ele>53.64</ele>
        <time>2025-01-27T11:35:38.491Z</time>
      </trkpt>
      <trkpt lat="58.83432984352112" lon="16.344157475978136">
        <ele>53.49</ele>
        <time>2025-01-27T11:35:53.625Z</time>
      </trkpt>
      <trkpt lat="58.83432934060693" lon="16.34415856562555">
        <ele>53.31</ele>
        <time>2025-01-27T11:36:08.759Z</time>
      </trkpt>
      <trkpt lat="58.83432934060693" lon="16.34415864944458">
        <ele>53.09</ele>
        <time>2025-01-27T11:36:23.893Z</time>
      </trkpt>
      <trkpt lat="58.834329172968864" lon="16.344158984720707">
        <ele>52.85</ele>
        <time>2025-01-27T11:36:39.027Z</time>
      </trkpt>
      <trkpt lat="58.834329172968864" lon="16.34415915235877">
        <ele>52.59</ele>
        <time>2025-01-27T11:36:54.161Z</time>
      </trkpt>
      <trkpt lat="58.834329172968864" lon="16.344159319996834">
        <ele>52.31</ele>
        <time>2025-01-27T11:37:09.295Z</time>
      </trkpt>
      <trkpt lat="58.83432883769274" lon="16.34416007436812">
        <ele>52.02</ele>
        <time>2025-01-27T11:37:24.429Z</time>
      </trkpt>
      <trkpt lat="58.83432892151177" lon="16.344159990549088">
        <ele>51.73</ele>
        <time>2025-01-27T11:37:39.563Z</time>
      </trkpt>
      <trkpt lat="58.83432883769274" lon="16.344159990549088">
        <ele>51.45</ele>
        <time>2025-01-27T11:37:54.697Z</time>
      </trkpt>
      <trkpt lat="58.834207970649004" lon="16.344288988038898">
        <ele>51.1</ele>
        <time>2025-01-27T11:38:09.849Z</time>
      </trkpt>
      <trkpt lat="58.83408995345235" lon="16.344322934746742">
        <ele>50.8</ele>
        <time>2025-01-27T11:38:25.017Z</time>
      </trkpt>
      <trkpt lat="58.833974953740835" lon="16.34429493919015">
        <ele>50.56</ele>
        <time>2025-01-27T11:38:40.201Z</time>
      </trkpt>
      <trkpt lat="58.833846962079406" lon="16.34422897361219">
        <ele>50.33</ele>
        <time>2025-01-27T11:38:55.403Z</time>
      </trkpt>
      <trkpt lat="58.833740931004286" lon="16.344238948076963">
        <ele>50.16</ele>
        <time>2025-01-27T11:39:10.619Z</time>
      </trkpt>
      <trkpt lat="58.833671947941184" lon="16.344306925311685">
        <ele>50.05</ele>
        <time>2025-01-27T11:39:25.845Z</time>
      </trkpt>
      <trkpt lat="58.8335279468447" lon="16.344611942768097">
        <ele>49.81</ele>
        <time>2025-01-27T11:39:41.100Z</time>
      </trkpt>
      <trkpt lat="58.833374977111816" lon="16.34500698186457">
        <ele>49.6</ele>
        <time>2025-01-27T11:39:56.389Z</time>
      </trkpt>
      <trkpt lat="58.83329392410815" lon="16.345163974910975">
        <ele>49.71</ele>
        <time>2025-01-27T11:40:11.693Z</time>
      </trkpt>
      <trkpt lat="58.833047999069095" lon="16.345447953790426">
        <ele>49.9</ele>
        <time>2025-01-27T11:40:27.036Z</time>
      </trkpt>
      <trkpt lat="58.83294699713588" lon="16.345549961552024">
        <ele>50.16</ele>
        <time>2025-01-27T11:40:42.394Z</time>
      </trkpt>
      <trkpt lat="58.832874996587634" lon="16.345681976526976">
        <ele>50.49</ele>
        <time>2025-01-27T11:40:57.765Z</time>
      </trkpt>
      <trkpt lat="58.83282093331218" lon="16.345900995656848">
        <ele>50.88</ele>
        <time>2025-01-27T11:41:13.153Z</time>
      </trkpt>
      <trkpt lat="58.83274423889816" lon="16.346316235139966">
        <ele>51.5</ele>
        <time>2025-01-27T11:41:28.571Z</time>
      </trkpt>
      <trkpt lat="58.8326679635793" lon="16.346728960052133">
        <ele>52.34</ele>
        <time>2025-01-27T11:41:44.020Z</time>
      </trkpt>
      <trkpt lat="58.83262496441603" lon="16.34730496443808">
        <ele>52.99</ele>
        <time>2025-01-27T11:41:59.509Z</time>
      </trkpt>
      <trkpt lat="58.83257492445409" lon="16.347533958032727">
        <ele>53.54</ele>
        <time>2025-01-27T11:42:15.015Z</time>
      </trkpt>
      <trkpt lat="58.832473922520876" lon="16.34766899049282">
        <ele>54.09</ele>
        <time>2025-01-27T11:42:30.538Z</time>
      </trkpt>
      <trkpt lat="58.83236856199801" lon="16.347830845043063">
        <ele>54.6</ele>
        <time>2025-01-27T11:42:46.079Z</time>
      </trkpt>
      <trkpt lat="58.83236797526479" lon="16.347831934690475">
        <ele>54.97</ele>
        <time>2025-01-27T11:43:01.620Z</time>
      </trkpt>
      <trkpt lat="58.8322411570698" lon="16.34801683947444">
        <ele>55.33</ele>
        <time>2025-01-27T11:43:17.182Z</time>
      </trkpt>
      <trkpt lat="58.83211492560804" lon="16.34820098988712">
        <ele>55.55</ele>
        <time>2025-01-27T11:43:32.765Z</time>
      </trkpt>
      <trkpt lat="58.832019958645105" lon="16.348254969343543">
        <ele>55.69</ele>
        <time>2025-01-27T11:43:48.362Z</time>
      </trkpt>
      <trkpt lat="58.83193898946047" lon="16.348281959071755">
        <ele>55.73</ele>
        <time>2025-01-27T11:44:03.969Z</time>
      </trkpt>
      <trkpt lat="58.83187394589186" lon="16.348347924649715">
        <ele>55.68</ele>
        <time>2025-01-27T11:44:19.586Z</time>
      </trkpt>
      <trkpt lat="58.83175098337233" lon="16.348498966544867">
        <ele>55.53</ele>
        <time>2025-01-27T11:44:35.223Z</time>
      </trkpt>
      <trkpt lat="58.83167093619704" lon="16.348596950992942">
        <ele>55.27</ele>
        <time>2025-01-27T11:44:50.872Z</time>
      </trkpt>
      <trkpt lat="58.831566916778684" lon="16.348692923784256">
        <ele>54.9</ele>
        <time>2025-01-27T11:45:06.537Z</time>
      </trkpt>
      <trkpt lat="58.83142593316734" lon="16.34874095208943">
        <ele>54.44</ele>
        <time>2025-01-27T11:45:22.221Z</time>
      </trkpt>
      <trkpt lat="58.831288972869515" lon="16.34881094098091">
        <ele>53.89</ele>
        <time>2025-01-27T11:45:37.924Z</time>
      </trkpt>
      <trkpt lat="58.83116592653096" lon="16.348898950964212">
        <ele>53.27</ele>
        <time>2025-01-27T11:45:53.645Z</time>
      </trkpt>
      <trkpt lat="58.830922935158014" lon="16.3491119351238">
        <ele>52.47</ele>
        <time>2025-01-27T11:46:09.401Z</time>
      </trkpt>
      <trkpt lat="58.83080299012363" lon="16.349249985069036">
        <ele>51.75</ele>
        <time>2025-01-27T11:46:25.176Z</time>
      </trkpt>
      <trkpt lat="58.83067399263382" lon="16.349423993378878">
        <ele>50.99</ele>
        <time>2025-01-27T11:46:40.972Z</time>
      </trkpt>
      <trkpt lat="58.830558992922306" lon="16.34960495866835">
        <ele>50.25</ele>
        <time>2025-01-27T11:46:56.788Z</time>
      </trkpt>
      <trkpt lat="58.83047693409026" lon="16.349705960601568">
        <ele>49.52</ele>
        <time>2025-01-27T11:47:12.617Z</time>
      </trkpt>
      <trkpt lat="58.830362940207124" lon="16.3498199544847">
        <ele>48.79</ele>
        <time>2025-01-27T11:47:28.463Z</time>
      </trkpt>
      <trkpt lat="58.830188177526" lon="16.34989907965064">
        <ele>48.05</ele>
        <time>2025-01-27T11:47:44.333Z</time>
      </trkpt>
      <trkpt lat="58.83001391775906" lon="16.349977953359485">
        <ele>47.37</ele>
        <time>2025-01-27T11:48:00.227Z</time>
      </trkpt>
      <trkpt lat="58.82982867769897" lon="16.349996980279684">
        <ele>46.73</ele>
        <time>2025-01-27T11:48:16.146Z</time>
      </trkpt>
      <trkpt lat="58.829819709062576" lon="16.34999781847">
        <ele>46.24</ele>
        <time>2025-01-27T11:48:32.066Z</time>
      </trkpt>
      <trkpt lat="58.82964394055307" lon="16.35001592338085">
        <ele>45.75</ele>
        <time>2025-01-27T11:48:48.009Z</time>
      </trkpt>
      <trkpt lat="58.8295129314065" lon="16.350046936422586">
        <ele>45.4</ele>
        <time>2025-01-27T11:49:03.970Z</time>
      </trkpt>
      <trkpt lat="58.829393992200494" lon="16.350105945020914">
        <ele>45.19</ele>
        <time>2025-01-27T11:49:19.947Z</time>
      </trkpt>
      <trkpt lat="58.82925795391202" lon="16.350189931690693">
        <ele>45.06</ele>
        <time>2025-01-27T11:49:35.944Z</time>
      </trkpt>
      <trkpt lat="58.82910892367363" lon="16.350281964987516">
        <ele>45.2</ele>
        <time>2025-01-27T11:49:51.961Z</time>
      </trkpt>
      <trkpt lat="58.82901999168098" lon="16.350320940837264">
        <ele>45.5</ele>
        <time>2025-01-27T11:50:07.991Z</time>
      </trkpt>
      <trkpt lat="58.82880566641688" lon="16.350287413224578">
        <ele>45.95</ele>
        <time>2025-01-27T11:50:24.049Z</time>
      </trkpt>
      <trkpt lat="58.82859192788601" lon="16.350253969430923">
        <ele>46.56</ele>
        <time>2025-01-27T11:50:40.136Z</time>
      </trkpt>
      <trkpt lat="58.82836511358619" lon="16.350212395191193">
        <ele>47.33</ele>
        <time>2025-01-27T11:50:56.253Z</time>
      </trkpt>
      <trkpt lat="58.82813896983862" lon="16.350170988589525">
        <ele>48.26</ele>
        <time>2025-01-27T11:51:12.401Z</time>
      </trkpt>
      <trkpt lat="58.82792196236551" lon="16.350080966949463">
        <ele>49.7</ele>
        <time>2025-01-27T11:51:28.579Z</time>
      </trkpt>
      <trkpt lat="58.8278619479388" lon="16.35003293864429">
        <ele>50.99</ele>
        <time>2025-01-27T11:51:44.765Z</time>
      </trkpt>
      <trkpt lat="58.827678970992565" lon="16.34981593117118">
        <ele>52.39</ele>
        <time>2025-01-27T11:52:00.980Z</time>
      </trkpt>
      <trkpt lat="58.82760596461594" lon="16.34969095699489">
        <ele>53.82</ele>
        <time>2025-01-27T11:52:17.208Z</time>
      </trkpt>
      <trkpt lat="58.82746615447104" lon="16.349861277267337">
        <ele>55.42</ele>
        <time>2025-01-27T11:52:33.458Z</time>
      </trkpt>
      <trkpt lat="58.82732693105936" lon="16.35003092698753">
        <ele>56.98</ele>
        <time>2025-01-27T11:52:49.730Z</time>
      </trkpt>
      <trkpt lat="58.82714856415987" lon="16.350259920582175">
        <ele>58.62</ele>
        <time>2025-01-27T11:53:06.031Z</time>
      </trkpt>
      <trkpt lat="58.826970951631665" lon="16.350487992167473">
        <ele>60.34</ele>
        <time>2025-01-27T11:53:22.360Z</time>
      </trkpt>
      <trkpt lat="58.826800966635346" lon="16.35068094357848">
        <ele>62.05</ele>
        <time>2025-01-27T11:53:38.716Z</time>
      </trkpt>
      <trkpt lat="58.82664296776056" lon="16.35080792941153">
        <ele>63.74</ele>
        <time>2025-01-27T11:53:55.095Z</time>
      </trkpt>
      <trkpt lat="58.8265029899776" lon="16.350832991302013">
        <ele>65.36</ele>
        <time>2025-01-27T11:54:11.492Z</time>
      </trkpt>
      <trkpt lat="58.82639695890248" lon="16.350787980481982">
        <ele>66.86</ele>
        <time>2025-01-27T11:54:27.904Z</time>
      </trkpt>
      <trkpt lat="58.8262989744544" lon="16.350728971883655">
        <ele>68.28</ele>
        <time>2025-01-27T11:54:44.330Z</time>
      </trkpt>
      <trkpt lat="58.82635194808245" lon="16.350296968594193">
        <ele>69.51</ele>
        <time>2025-01-27T11:55:00.786Z</time>
      </trkpt>
      <trkpt lat="58.826400982216" lon="16.35001097805798">
        <ele>70.61</ele>
        <time>2025-01-27T11:55:17.263Z</time>
      </trkpt>
      <trkpt lat="58.82645663805306" lon="16.34972607716918">
        <ele>71.61</ele>
        <time>2025-01-27T11:55:33.761Z</time>
      </trkpt>
      <trkpt lat="58.82651195861399" lon="16.349442936480045">
        <ele>72.44</ele>
        <time>2025-01-27T11:55:50.280Z</time>
      </trkpt>
      <trkpt lat="58.826564932242036" lon="16.349123921245337">
        <ele>73.12</ele>
        <time>2025-01-27T11:56:06.822Z</time>
      </trkpt>
      <trkpt lat="58.826584964990616" lon="16.348897945135832">
        <ele>73.68</ele>
        <time>2025-01-27T11:56:23.380Z</time>
      </trkpt>
      <trkpt lat="58.82658697664738" lon="16.348694935441017">
        <ele>74.05</ele>
        <time>2025-01-27T11:56:39.952Z</time>
      </trkpt>
      <trkpt lat="58.82658094167709" lon="16.348435934633017">
        <ele>74.26</ele>
        <time>2025-01-27T11:56:56.542Z</time>
      </trkpt>
      <trkpt lat="58.82653685286641" lon="16.348072327673435">
        <ele>74.33</ele>
        <time>2025-01-27T11:57:13.158Z</time>
      </trkpt>
      <trkpt lat="58.82649293169379" lon="16.34771098382771">
        <ele>74.21</ele>
        <time>2025-01-27T11:57:29.800Z</time>
      </trkpt>
      <trkpt lat="58.8264147285372" lon="16.34725316427648">
        <ele>73.88</ele>
        <time>2025-01-27T11:57:46.475Z</time>
      </trkpt>
      <trkpt lat="58.82633644156158" lon="16.346795428544283">
        <ele>73.46</ele>
        <time>2025-01-27T11:58:03.184Z</time>
      </trkpt>
      <trkpt lat="58.826258992776275" lon="16.346341967582703">
        <ele>72.89</ele>
        <time>2025-01-27T11:58:19.926Z</time>
      </trkpt>
      <trkpt lat="58.82619327865541" lon="16.345989843830466">
        <ele>72.19</ele>
        <time>2025-01-27T11:58:36.694Z</time>
      </trkpt>
      <trkpt lat="58.8261279836297" lon="16.345639983192086">
        <ele>71.34</ele>
        <time>2025-01-27T11:58:53.488Z</time>
      </trkpt>
      <trkpt lat="58.82604198530316" lon="16.345355920493603">
        <ele>70.36</ele>
        <time>2025-01-27T11:59:10.304Z</time>
      </trkpt>
      <trkpt lat="58.82596797309816" lon="16.345182918012142">
        <ele>69.3</ele>
        <time>2025-01-27T11:59:27.136Z</time>
      </trkpt>
      <trkpt lat="58.82583595812321" lon="16.344950990751386">
        <ele>68.12</ele>
        <time>2025-01-27T11:59:43.992Z</time>
      </trkpt>
      <trkpt lat="58.82560193538666" lon="16.34459299966693">
        <ele>66.83</ele>
        <time>2025-01-27T12:00:00.888Z</time>
      </trkpt>
      <trkpt lat="58.82545315660536" lon="16.344349924474955">
        <ele>65.54</ele>
        <time>2025-01-27T12:00:17.810Z</time>
      </trkpt>
      <trkpt lat="58.82530496455729" lon="16.344107938930392">
        <ele>64.22</ele>
        <time>2025-01-27T12:00:34.758Z</time>
      </trkpt>
      <trkpt lat="58.82519097067416" lon="16.34394994005561">
        <ele>62.95</ele>
        <time>2025-01-27T12:00:51.725Z</time>
      </trkpt>
      <trkpt lat="58.824973963201046" lon="16.34375497698784">
        <ele>61.67</ele>
        <time>2025-01-27T12:01:08.724Z</time>
      </trkpt>
      <trkpt lat="58.82472493685782" lon="16.343463957309723">
        <ele>60.5</ele>
        <time>2025-01-27T12:01:25.762Z</time>
      </trkpt>
      <trkpt lat="58.82465394213796" lon="16.343353986740112">
        <ele>59.62</ele>
        <time>2025-01-27T12:01:42.812Z</time>
      </trkpt>
      <trkpt lat="58.824602980166674" lon="16.34322691708803">
        <ele>58.87</ele>
        <time>2025-01-27T12:01:59.873Z</time>
      </trkpt>
      <trkpt lat="58.82457892410457" lon="16.343087945133448">
        <ele>58.29</ele>
        <time>2025-01-27T12:02:16.944Z</time>
      </trkpt>
      <trkpt lat="58.8245689496398" lon="16.34291997179389">
        <ele>57.8</ele>
        <time>2025-01-27T12:02:34.027Z</time>
      </trkpt>
      <trkpt lat="58.82472493685782" lon="16.342414962127805">
        <ele>57.33</ele>
        <time>2025-01-27T12:02:51.150Z</time>
      </trkpt>
      <trkpt lat="58.82476877421141" lon="16.342244390398264">
        <ele>57.14</ele>
        <time>2025-01-27T12:03:08.287Z</time>
      </trkpt>
      <trkpt lat="58.82478595711291" lon="16.342177921906114">
        <ele>57.15</ele>
        <time>2025-01-27T12:03:25.429Z</time>
      </trkpt>
      <trkpt lat="58.824723260477185" lon="16.34175061248243">
        <ele>57.36</ele>
        <time>2025-01-27T12:03:42.602Z</time>
      </trkpt>
      <trkpt lat="58.82466098293662" lon="16.34132598526776">
        <ele>57.89</ele>
        <time>2025-01-27T12:03:59.805Z</time>
      </trkpt>
      <trkpt lat="58.824649918824434" lon="16.340950978919864">
        <ele>58.64</ele>
        <time>2025-01-27T12:04:17.034Z</time>
      </trkpt>
      <trkpt lat="58.8247449696064" lon="16.340585947036743">
        <ele>59.46</ele>
        <time>2025-01-27T12:04:34.292Z</time>
      </trkpt>
      <trkpt lat="58.82481722161174" lon="16.340177161619067">
        <ele>60.47</ele>
        <time>2025-01-27T12:04:51.579Z</time>
      </trkpt>
      <trkpt lat="58.82488897070289" lon="16.339770974591374">
        <ele>61.52</ele>
        <time>2025-01-27T12:05:08.896Z</time>
      </trkpt>
      <trkpt lat="58.824905985966325" lon="16.339362943544984">
        <ele>62.72</ele>
        <time>2025-01-27T12:05:26.242Z</time>
      </trkpt>
      <trkpt lat="58.82490045391023" lon="16.339029343798757">
        <ele>63.89</ele>
        <time>2025-01-27T12:05:43.611Z</time>
      </trkpt>
      <trkpt lat="58.82489492185414" lon="16.338697923347354">
        <ele>65.1</ele>
        <time>2025-01-27T12:06:01.003Z</time>
      </trkpt>
      <trkpt lat="58.82477195933461" lon="16.33821495808661">
        <ele>66.35</ele>
        <time>2025-01-27T12:06:18.432Z</time>
      </trkpt>
      <trkpt lat="58.8247499987483" lon="16.33772092871368">
        <ele>67.65</ele>
        <time>2025-01-27T12:06:35.895Z</time>
      </trkpt>
      <trkpt lat="58.824755949899554" lon="16.337366960942745">
        <ele>68.98</ele>
        <time>2025-01-27T12:06:53.383Z</time>
      </trkpt>
      <trkpt lat="58.82469174452126" lon="16.337044509127736">
        <ele>70.34</ele>
        <time>2025-01-27T12:07:10.895Z</time>
      </trkpt>
      <trkpt lat="58.824627958238125" lon="16.336723985150456">
        <ele>71.66</ele>
        <time>2025-01-27T12:07:28.431Z</time>
      </trkpt>
      <trkpt lat="58.82471093907952" lon="16.33634797297418">
        <ele>73.0</ele>
        <time>2025-01-27T12:07:45.995Z</time>
      </trkpt>
      <trkpt lat="58.824821999296546" lon="16.336015965789557">
        <ele>74.31</ele>
        <time>2025-01-27T12:08:03.586Z</time>
      </trkpt>
      <trkpt lat="58.82495594210923" lon="16.33576895110309">
        <ele>75.47</ele>
        <time>2025-01-27T12:08:21.202Z</time>
      </trkpt>
      <trkpt lat="58.82506096735597" lon="16.335392938926816">
        <ele>76.65</ele>
        <time>2025-01-27T12:08:38.848Z</time>
      </trkpt>
      <trkpt lat="58.825121987611055" lon="16.334985997527838">
        <ele>77.78</ele>
        <time>2025-01-27T12:08:56.523Z</time>
      </trkpt>
      <trkpt lat="58.82513598538935" lon="16.33465734310448">
        <ele>78.9</ele>
        <time>2025-01-27T12:09:14.221Z</time>
      </trkpt>
      <trkpt lat="58.82514998316765" lon="16.334330951794982">
        <ele>79.95</ele>
        <time>2025-01-27T12:09:31.942Z</time>
      </trkpt>
      <trkpt lat="58.825188959017396" lon="16.333955945447087">
        <ele>80.88</ele>
        <time>2025-01-27T12:09:49.689Z</time>
      </trkpt>
      <trkpt lat="58.82523296400905" lon="16.333686970174313">
        <ele>81.76</ele>
        <time>2025-01-27T12:10:07.456Z</time>
      </trkpt>
      <trkpt lat="58.82523899897933" lon="16.333375917747617">
        <ele>82.56</ele>
        <time>2025-01-27T12:10:25.244Z</time>
      </trkpt>
      <trkpt lat="58.825227934867144" lon="16.333161927759647">
        <ele>83.36</ele>
        <time>2025-01-27T12:10:43.047Z</time>
      </trkpt>
      <trkpt lat="58.82513891905546" lon="16.333021949976683">
        <ele>84.12</ele>
        <time>2025-01-27T12:11:00.866Z</time>
      </trkpt>
      <trkpt lat="58.825038922950625" lon="16.33296897634864">
        <ele>84.83</ele>
        <time>2025-01-27T12:11:18.698Z</time>
      </trkpt>
      <trkpt lat="58.82487497292459" lon="16.33297299966216">
        <ele>85.5</ele>
        <time>2025-01-27T12:11:36.552Z</time>
      </trkpt>
      <trkpt lat="58.824667604640126" lon="16.333019016310573">
        <ele>86.13</ele>
        <time>2025-01-27T12:11:54.434Z</time>
      </trkpt>
      <trkpt lat="58.82446099072695" lon="16.333064949139953">
        <ele>86.65</ele>
        <time>2025-01-27T12:12:12.344Z</time>
      </trkpt>
      <trkpt lat="58.82433392107487" lon="16.333032930269837">
        <ele>86.99</ele>
        <time>2025-01-27T12:12:30.271Z</time>
      </trkpt>
      <trkpt lat="58.82414499297738" lon="16.332935951650143">
        <ele>87.23</ele>
        <time>2025-01-27T12:12:48.224Z</time>
      </trkpt>
      <trkpt lat="58.82399998605251" lon="16.332892952486873">
        <ele>87.4</ele>
        <time>2025-01-27T12:13:06.197Z</time>
      </trkpt>
      <trkpt lat="58.82386696524918" lon="16.33283997885883">
        <ele>87.5</ele>
        <time>2025-01-27T12:13:24.188Z</time>
      </trkpt>
      <trkpt lat="58.82375598885119" lon="16.33271098136902">
        <ele>87.54</ele>
        <time>2025-01-27T12:13:42.196Z</time>
      </trkpt>
      <trkpt lat="58.82362799718976" lon="16.33232499472797">
        <ele>87.56</ele>
        <time>2025-01-27T12:14:00.236Z</time>
      </trkpt>
      <trkpt lat="58.82352791726589" lon="16.33215299807489">
        <ele>87.47</ele>
        <time>2025-01-27T12:14:18.294Z</time>
      </trkpt>
      <trkpt lat="58.82338399998844" lon="16.331841945648193">
        <ele>87.33</ele>
        <time>2025-01-27T12:14:36.381Z</time>
      </trkpt>
      <trkpt lat="58.82323371246457" lon="16.331702219322324">
        <ele>87.15</ele>
        <time>2025-01-27T12:14:54.490Z</time>
      </trkpt>
      <trkpt lat="58.823083927854896" lon="16.331562995910645">
        <ele>86.94</ele>
        <time>2025-01-27T12:15:12.622Z</time>
      </trkpt>
      <trkpt lat="58.82287798449397" lon="16.33129494264722">
        <ele>86.73</ele>
        <time>2025-01-27T12:15:30.787Z</time>
      </trkpt>
      <trkpt lat="58.822739934548736" lon="16.331154964864254">
        <ele>86.42</ele>
        <time>2025-01-27T12:15:48.973Z</time>
      </trkpt>
      <trkpt lat="58.82252896204591" lon="16.3310369476676">
        <ele>86.06</ele>
        <time>2025-01-27T12:16:07.188Z</time>
      </trkpt>
      <trkpt lat="58.82246693596244" lon="16.330940974876285">
        <ele>85.66</ele>
        <time>2025-01-27T12:16:25.414Z</time>
      </trkpt>
      <trkpt lat="58.822416979819536" lon="16.33077995851636">
        <ele>85.25</ele>
        <time>2025-01-27T12:16:43.653Z</time>
      </trkpt>
      <trkpt lat="58.82240097038448" lon="16.330554988235235">
        <ele>84.84</ele>
        <time>2025-01-27T12:17:01.907Z</time>
      </trkpt>
      <trkpt lat="58.82230097427964" lon="16.330360947176814">
        <ele>84.41</ele>
        <time>2025-01-27T12:17:20.180Z</time>
      </trkpt>
      <trkpt lat="58.822155967354774" lon="16.33019993081689">
        <ele>83.98</ele>
        <time>2025-01-27T12:17:38.476Z</time>
      </trkpt>
      <trkpt lat="58.82196796126664" lon="16.33007193915546">
        <ele>83.5</ele>
        <time>2025-01-27T12:17:56.798Z</time>
      </trkpt>
      <trkpt lat="58.82178397849202" lon="16.329996921122074">
        <ele>83.0</ele>
        <time>2025-01-27T12:18:15.145Z</time>
      </trkpt>
      <trkpt lat="58.821644922718406" lon="16.329888962209225">
        <ele>82.51</ele>
        <time>2025-01-27T12:18:33.512Z</time>
      </trkpt>
      <trkpt lat="58.82152296602726" lon="16.329841939732432">
        <ele>82.05</ele>
        <time>2025-01-27T12:18:51.896Z</time>
      </trkpt>
      <trkpt lat="58.82132699713111" lon="16.32953893393278">
        <ele>81.64</ele>
        <time>2025-01-27T12:19:10.314Z</time>
      </trkpt>
      <trkpt lat="58.82116195745766" lon="16.329330978915095">
        <ele>81.29</ele>
        <time>2025-01-27T12:19:28.758Z</time>
      </trkpt>
      <trkpt lat="58.82089792750776" lon="16.329137943685055">
        <ele>81.06</ele>
        <time>2025-01-27T12:19:47.240Z</time>
      </trkpt>
      <trkpt lat="58.82078896276653" lon="16.329110953956842">
        <ele>80.84</ele>
        <time>2025-01-27T12:20:05.736Z</time>
      </trkpt>
      <trkpt lat="58.82053792476654" lon="16.329355956986547">
        <ele>80.67</ele>
        <time>2025-01-27T12:20:24.270Z</time>
      </trkpt>
      <trkpt lat="58.82043398916721" lon="16.329482942819595">
        <ele>80.49</ele>
        <time>2025-01-27T12:20:42.821Z</time>
      </trkpt>
      <trkpt lat="58.82036492228508" lon="16.329587968066335">
        <ele>80.3</ele>
        <time>2025-01-27T12:21:01.383Z</time>
      </trkpt>
      <trkpt lat="58.820246988907456" lon="16.329845963045955">
        <ele>80.15</ele>
        <time>2025-01-27T12:21:19.969Z</time>
      </trkpt>
      <trkpt lat="58.82019694894552" lon="16.329978983849287">
        <ele>80.05</ele>
        <time>2025-01-27T12:21:38.567Z</time>
      </trkpt>
      <trkpt lat="58.81993995979428" lon="16.330232955515385">
        <ele>79.98</ele>
        <time>2025-01-27T12:21:57.203Z</time>
      </trkpt>
      <trkpt lat="58.819795958697796" lon="16.33045792579651">
        <ele>79.95</ele>
        <time>2025-01-27T12:22:15.864Z</time>
      </trkpt>
      <trkpt lat="58.81962899118662" lon="16.33054392412305">
        <ele>79.97</ele>
        <time>2025-01-27T12:22:34.548Z</time>
      </trkpt>
      <trkpt lat="58.81946294568479" lon="16.330596981570125">
        <ele>80.01</ele>
        <time>2025-01-27T12:22:53.255Z</time>
      </trkpt>
      <trkpt lat="58.81918491795659" lon="16.33047896437347">
        <ele>80.08</ele>
        <time>2025-01-27T12:23:12.000Z</time>
      </trkpt>
      <trkpt lat="58.819034211337566" lon="16.330388942733407">
        <ele>80.11</ele>
        <time>2025-01-27T12:23:30.766Z</time>
      </trkpt>
      <trkpt lat="58.81903186440468" lon="16.330387517809868">
        <ele>80.17</ele>
        <time>2025-01-27T12:23:49.532Z</time>
      </trkpt>
      <trkpt lat="58.81902918219566" lon="16.330385841429234">
        <ele>80.24</ele>
        <time>2025-01-27T12:24:08.298Z</time>
      </trkpt>
      <trkpt lat="58.81902867928147" lon="16.33038558997214">
        <ele>80.32</ele>
        <time>2025-01-27T12:24:27.064Z</time>
      </trkpt>
      <trkpt lat="58.81902851164341" lon="16.330385506153107">
        <ele>80.41</ele>
        <time>2025-01-27T12:24:45.830Z</time>
      </trkpt>
      <trkpt lat="58.819028260186315" lon="16.330385338515043">
        <ele>80.51</ele>
        <time>2025-01-27T12:25:04.596Z</time>
      </trkpt>
      <trkpt lat="58.81902599707246" lon="16.330383997410536">
        <ele>80.62</ele>
        <time>2025-01-27T12:25:23.363Z</time>
      </trkpt>
      <trkpt lat="58.81902499124408" lon="16.330383410677314">
        <ele>80.73</ele>
        <time>2025-01-27T12:25:42.130Z</time>
      </trkpt>
      <trkpt lat="58.819024907425046" lon="16.330383410677314">
        <ele>80.84</ele>
        <time>2025-01-27T12:26:00.897Z</time>
      </trkpt>
      <trkpt lat="58.81902473978698" lon="16.330383326858282">
        <ele>80.95</ele>
        <time>2025-01-27T12:26:19.664Z</time>
      </trkpt>
      <trkpt lat="58.81902465596795" lon="16.330383326858282">
        <ele>81.07</ele>
        <time>2025-01-27T12:26:38.431Z</time>
      </trkpt>
      <trkpt lat="58.81902457214892" lon="16.330383326858282">
        <ele>81.18</ele>
        <time>2025-01-27T12:26:57.198Z</time>
      </trkpt>
      <trkpt lat="58.819023817777634" lon="16.330382907763124">
        <ele>81.3</ele>
        <time>2025-01-27T12:27:15.965Z</time>
      </trkpt>
      <trkpt lat="58.8190239854157" lon="16.330382991582155">
        <ele>81.42</ele>
        <time>2025-01-27T12:27:34.732Z</time>
      </trkpt>
      <trkpt lat="58.819023817777634" lon="16.330382823944092">
        <ele>81.54</ele>
        <time>2025-01-27T12:27:53.499Z</time>
      </trkpt>
      <trkpt lat="58.81881292909384" lon="16.330189956352115">
        <ele>81.62</ele>
        <time>2025-01-27T12:28:12.297Z</time>
      </trkpt>
      <trkpt lat="58.81868493743241" lon="16.330017959699035">
        <ele>81.75</ele>
        <time>2025-01-27T12:28:31.116Z</time>
      </trkpt>
      <trkpt lat="58.81857396103442" lon="16.329631973057985">
        <ele>81.85</ele>
        <time>2025-01-27T12:28:49.966Z</time>
      </trkpt>
      <trkpt lat="58.818501960486174" lon="16.329223942011595">
        <ele>81.98</ele>
        <time>2025-01-27T12:29:08.846Z</time>
      </trkpt>
      <trkpt lat="58.8183899782598" lon="16.328987991437316">
        <ele>82.07</ele>
        <time>2025-01-27T12:29:27.748Z</time>
      </trkpt>
      <trkpt lat="58.81826299242675" lon="16.32882697507739">
        <ele>82.2</ele>
        <time>2025-01-27T12:29:46.670Z</time>
      </trkpt>
      <trkpt lat="58.81818998605013" lon="16.32867593318224">
        <ele>82.34</ele>
        <time>2025-01-27T12:30:05.606Z</time>
      </trkpt>
      <trkpt lat="58.818117985501885" lon="16.32841994985938">
        <ele>82.44</ele>
        <time>2025-01-27T12:30:24.563Z</time>
      </trkpt>
      <trkpt lat="58.81806794553995" lon="16.327828941866755">
        <ele>82.52</ele>
        <time>2025-01-27T12:30:43.561Z</time>
      </trkpt>
      <trkpt lat="58.81800692528486" lon="16.32745393551886">
        <ele>82.63</ele>
        <time>2025-01-27T12:31:02.586Z</time>
      </trkpt>
      <trkpt lat="58.81791799329221" lon="16.327228965237737">
        <ele>82.69</ele>
        <time>2025-01-27T12:31:21.631Z</time>
      </trkpt>
      <trkpt lat="58.817817997187376" lon="16.327088987454772">
        <ele>82.75</ele>
        <time>2025-01-27T12:31:40.693Z</time>
      </trkpt>
      <trkpt lat="58.81774096749723" lon="16.327045988291502">
        <ele>82.82</ele>
        <time>2025-01-27T12:31:59.765Z</time>
      </trkpt>
      <trkpt lat="58.81767894141376" lon="16.32689595222473">
        <ele>82.83</ele>
        <time>2025-01-27T12:32:18.851Z</time>
      </trkpt>
      <trkpt lat="58.81761775352061" lon="16.32660560309887">
        <ele>82.8</ele>
        <time>2025-01-27T12:32:37.958Z</time>
      </trkpt>
      <trkpt lat="58.817556984722614" lon="16.32631693035364">
        <ele>82.86</ele>
        <time>2025-01-27T12:32:57.087Z</time>
      </trkpt>
      <trkpt lat="58.817556984722614" lon="16.326123978942633">
        <ele>82.82</ele>
        <time>2025-01-27T12:33:16.229Z</time>
      </trkpt>
      <trkpt lat="58.817517925053835" lon="16.32592993788421">
        <ele>82.75</ele>
        <time>2025-01-27T12:33:35.386Z</time>
      </trkpt>
      <trkpt lat="58.81747894920409" lon="16.325693987309933">
        <ele>82.68</ele>
        <time>2025-01-27T12:33:54.560Z</time>
      </trkpt>
      <trkpt lat="58.81748196668923" lon="16.325549986213446">
        <ele>82.56</ele>
        <time>2025-01-27T12:34:13.744Z</time>
      </trkpt>
      <trkpt lat="58.817581962794065" lon="16.325462982058525">
        <ele>82.43</ele>
        <time>2025-01-27T12:34:32.943Z</time>
      </trkpt>
      <trkpt lat="58.817603923380375" lon="16.325360974296927">
        <ele>82.24</ele>
        <time>2025-01-27T12:34:52.149Z</time>
      </trkpt>
      <trkpt lat="58.81770593114197" lon="16.325117982923985">
        <ele>82.02</ele>
        <time>2025-01-27T12:35:11.377Z</time>
      </trkpt>
      <trkpt lat="58.81774599663913" lon="16.324910949915648">
        <ele>81.77</ele>
        <time>2025-01-27T12:35:30.620Z</time>
      </trkpt>
      <trkpt lat="58.817840963602066" lon="16.324749933555722">
        <ele>81.55</ele>
        <time>2025-01-27T12:35:49.880Z</time>
      </trkpt>
      <trkpt lat="58.81800692528486" lon="16.324309967458248">
        <ele>81.25</ele>
        <time>2025-01-27T12:36:09.178Z</time>
      </trkpt>
      <trkpt lat="58.818139946088195" lon="16.323869917541742">
        <ele>80.94</ele>
        <time>2025-01-27T12:36:28.511Z</time>
      </trkpt>
      <trkpt lat="58.81823994219303" lon="16.323612928390503">
        <ele>80.61</ele>
        <time>2025-01-27T12:36:47.866Z</time>
      </trkpt>
      <trkpt lat="58.818289982154965" lon="16.32340899668634">
        <ele>80.32</ele>
        <time>2025-01-27T12:37:07.237Z</time>
      </trkpt>
      <trkpt lat="58.818312948569655" lon="16.323118982836604">
        <ele>80.03</ele>
        <time>2025-01-27T12:37:26.628Z</time>
      </trkpt>
      <trkpt lat="58.8183849491179" lon="16.322732996195555">
        <ele>79.76</ele>
        <time>2025-01-27T12:37:46.048Z</time>
      </trkpt>
      <trkpt lat="58.81851796992123" lon="16.322432924062014">
        <ele>79.48</ele>
        <time>2025-01-27T12:38:05.495Z</time>
      </trkpt>
      <trkpt lat="58.81861570291221" lon="16.322163697332144">
        <ele>79.21</ele>
        <time>2025-01-27T12:38:24.965Z</time>
      </trkpt>
      <trkpt lat="58.818712932989" lon="16.321895979344845">
        <ele>79.02</ele>
        <time>2025-01-27T12:38:44.458Z</time>
      </trkpt>
      <trkpt lat="58.81889599375427" lon="16.32169296965003">
        <ele>78.81</ele>
        <time>2025-01-27T12:39:03.979Z</time>
      </trkpt>
      <trkpt lat="58.818978974595666" lon="16.321487948298454">
        <ele>78.61</ele>
        <time>2025-01-27T12:39:23.518Z</time>
      </trkpt>
      <trkpt lat="58.818995989859104" lon="16.321230959147215">
        <ele>78.42</ele>
        <time>2025-01-27T12:39:43.075Z</time>
      </trkpt>
      <trkpt lat="58.81892398931086" lon="16.320858970284462">
        <ele>78.28</ele>
        <time>2025-01-27T12:40:02.659Z</time>
      </trkpt>
      <trkpt lat="58.8191429246217" lon="16.320611955597997">
        <ele>78.19</ele>
        <time>2025-01-27T12:40:22.277Z</time>
      </trkpt>
      <trkpt lat="58.819123981520534" lon="16.32035697810352">
        <ele>78.1</ele>
        <time>2025-01-27T12:40:41.913Z</time>
      </trkpt>
      <trkpt lat="58.819127921015024" lon="16.32023594342172">
        <ele>78.04</ele>
        <time>2025-01-27T12:41:01.558Z</time>
      </trkpt>
      <trkpt lat="58.819148959591985" lon="16.32014692761004">
        <ele>78.0</ele>
        <time>2025-01-27T12:41:21.209Z</time>
      </trkpt>
      <trkpt lat="58.819146947935224" lon="16.320045925676823">
        <ele>77.95</ele>
        <time>2025-01-27T12:41:40.867Z</time>
      </trkpt>
      <trkpt lat="58.819106966257095" lon="16.319720959290862">
        <ele>77.93</ele>
        <time>2025-01-27T12:42:00.549Z</time>
      </trkpt>
      <trkpt lat="58.8190739415586" lon="16.319575952365994">
        <ele>77.93</ele>
        <time>2025-01-27T12:42:20.242Z</time>
      </trkpt>
      <trkpt lat="58.81907092407346" lon="16.319492971524596">
        <ele>77.93</ele>
        <time>2025-01-27T12:42:39.940Z</time>
      </trkpt>
      <trkpt lat="58.81909699179232" lon="16.319323992356658">
        <ele>77.9</ele>
        <time>2025-01-27T12:42:59.651Z</time>
      </trkpt>
      <trkpt lat="58.81912096403539" lon="16.319197928532958">
        <ele>77.88</ele>
        <time>2025-01-27T12:43:19.371Z</time>
      </trkpt>
      <trkpt lat="58.81915792822838" lon="16.31909298710525">
        <ele>77.86</ele>
        <time>2025-01-27T12:43:39.100Z</time>
      </trkpt>
      <trkpt lat="58.81920293904841" lon="16.319036995992064">
        <ele>77.84</ele>
        <time>2025-01-27T12:43:58.836Z</time>
      </trkpt>
      <trkpt lat="58.8192499615252" lon="16.318956948816776">
        <ele>77.81</ele>
        <time>2025-01-27T12:44:18.580Z</time>
      </trkpt>
      <trkpt lat="58.81935398094356" lon="16.318655954673886">
        <ele>77.8</ele>
        <time>2025-01-27T12:44:38.349Z</time>
      </trkpt>
      <trkpt lat="58.81943293847144" lon="16.318486975505948">
        <ele>77.76</ele>
        <time>2025-01-27T12:44:58.134Z</time>
      </trkpt>
      <trkpt lat="58.819512985646725" lon="16.31834196858108">
        <ele>77.7</ele>
        <time>2025-01-27T12:45:17.934Z</time>
      </trkpt>
      <trkpt lat="58.819580962881446" lon="16.31823794916272">
        <ele>77.69</ele>
        <time>2025-01-27T12:45:37.745Z</time>
      </trkpt>
      <trkpt lat="58.819620944559574" lon="16.318156979978085">
        <ele>77.71</ele>
        <time>2025-01-27T12:45:57.564Z</time>
      </trkpt>
      <trkpt lat="58.81964994594455" lon="16.31806092336774">
        <ele>77.74</ele>
        <time>2025-01-27T12:46:17.391Z</time>
      </trkpt>
      <trkpt lat="58.81966193206608" lon="16.317963944748044">
        <ele>77.78</ele>
        <time>2025-01-27T12:46:37.225Z</time>
      </trkpt>
      <trkpt lat="58.81968196481466" lon="16.317464970052242">
        <ele>77.86</ele>
        <time>2025-01-27T12:46:57.093Z</time>
      </trkpt>
      <trkpt lat="58.819748936221" lon="16.317145954817533">
        <ele>77.94</ele>
        <time>2025-01-27T12:47:16.985Z</time>
      </trkpt>
      <trkpt lat="58.819775925949216" lon="16.31692391820252">
        <ele>77.98</ele>
        <time>2025-01-27T12:47:36.893Z</time>
      </trkpt>
      <trkpt lat="58.819792941212654" lon="16.31683791987598">
        <ele>78.03</ele>
        <time>2025-01-27T12:47:56.807Z</time>
      </trkpt>
      <trkpt lat="58.8198009878397" lon="16.316595934331417">
        <ele>78.13</ele>
        <time>2025-01-27T12:48:16.738Z</time>
      </trkpt>
      <trkpt lat="58.8197869900614" lon="16.31644598208368">
        <ele>78.2</ele>
        <time>2025-01-27T12:48:36.680Z</time>
      </trkpt>
      <trkpt lat="58.8198009878397" lon="16.316295946016908">
        <ele>78.25</ele>
        <time>2025-01-27T12:48:56.632Z</time>
      </trkpt>
      <trkpt lat="58.81984298117459" lon="16.316171977669">
        <ele>78.29</ele>
        <time>2025-01-27T12:49:16.595Z</time>
      </trkpt>
      <trkpt lat="58.81993694230914" lon="16.315951952710748">
        <ele>78.29</ele>
        <time>2025-01-27T12:49:36.577Z</time>
      </trkpt>
      <trkpt lat="58.820073986425996" lon="16.315490948036313">
        <ele>78.31</ele>
        <time>2025-01-27T12:49:56.596Z</time>
      </trkpt>
      <trkpt lat="58.82008999586105" lon="16.315211998298764">
        <ele>78.44</ele>
        <time>2025-01-27T12:50:16.635Z</time>
      </trkpt>
      <trkpt lat="58.82008697837591" lon="16.31498795002699">
        <ele>78.63</ele>
        <time>2025-01-27T12:50:36.689Z</time>
      </trkpt>
      <trkpt lat="58.82007599808276" lon="16.314809918403625">
        <ele>78.86</ele>
        <time>2025-01-27T12:50:56.756Z</time>
      </trkpt>
      <trkpt lat="58.82007599808276" lon="16.314610932022333">
        <ele>79.11</ele>
        <time>2025-01-27T12:51:16.836Z</time>
      </trkpt>
      <trkpt lat="58.82012595422566" lon="16.31442896090448">
        <ele>79.34</ele>
        <time>2025-01-27T12:51:36.931Z</time>
      </trkpt>
      <trkpt lat="58.82017599418759" lon="16.31427892483771">
        <ele>79.57</ele>
        <time>2025-01-27T12:51:57.038Z</time>
      </trkpt>
      <trkpt lat="58.820225950330496" lon="16.313988994807005">
        <ele>79.84</ele>
        <time>2025-01-27T12:52:17.166Z</time>
      </trkpt>
      <trkpt lat="58.82029795087874" lon="16.31383292376995">
        <ele>80.05</ele>
        <time>2025-01-27T12:52:37.309Z</time>
      </trkpt>
      <trkpt lat="58.8204899802804" lon="16.313586998730898">
        <ele>80.26</ele>
        <time>2025-01-27T12:52:57.483Z</time>
      </trkpt>
      <trkpt lat="58.820611936971545" lon="16.313511980697513">
        <ele>80.49</ele>
        <time>2025-01-27T12:53:17.674Z</time>
      </trkpt>
      <trkpt lat="58.8208179641515" lon="16.313302936032414">
        <ele>80.76</ele>
        <time>2025-01-27T12:53:37.896Z</time>
      </trkpt>
      <trkpt lat="58.82087596692145" lon="16.313178967684507">
        <ele>81.02</ele>
        <time>2025-01-27T12:53:58.129Z</time>
      </trkpt>
      <trkpt lat="58.82091796025634" lon="16.312674963846803">
        <ele>81.32</ele>
        <time>2025-01-27T12:54:18.398Z</time>
      </trkpt>
      <trkpt lat="58.820953918620944" lon="16.312508918344975">
        <ele>81.56</ele>
        <time>2025-01-27T12:54:38.679Z</time>
      </trkpt>
      <trkpt lat="58.82101493887603" lon="16.312395930290222">
        <ele>81.82</ele>
        <time>2025-01-27T12:54:58.972Z</time>
      </trkpt>
      <trkpt lat="58.82111493498087" lon="16.312180934473872">
        <ele>82.04</ele>
        <time>2025-01-27T12:55:19.285Z</time>
      </trkpt>
      <trkpt lat="58.82119598798454" lon="16.312057971954346">
        <ele>82.26</ele>
        <time>2025-01-27T12:55:39.611Z</time>
      </trkpt>
      <trkpt lat="58.82128399796784" lon="16.312014972791076">
        <ele>82.52</ele>
        <time>2025-01-27T12:55:59.949Z</time>
      </trkpt>
      <trkpt lat="58.821361949667335" lon="16.311907935887575">
        <ele>82.79</ele>
        <time>2025-01-27T12:56:20.300Z</time>
      </trkpt>
      <trkpt lat="58.82138994522393" lon="16.311815986409783">
        <ele>83.07</ele>
        <time>2025-01-27T12:56:40.659Z</time>
      </trkpt>
      <trkpt lat="58.82139598019421" lon="16.311649940907955">
        <ele>83.33</ele>
        <time>2025-01-27T12:57:01.029Z</time>
      </trkpt>
      <trkpt lat="58.82137594744563" lon="16.311386916786432">
        <ele>83.65</ele>
        <time>2025-01-27T12:57:21.418Z</time>
      </trkpt>
      <trkpt lat="58.82133395411074" lon="16.311022974550724">
        <ele>84.01</ele>
        <time>2025-01-27T12:57:41.832Z</time>
      </trkpt>
      <trkpt lat="58.82123999297619" lon="16.310491980984807">
        <ele>84.39</ele>
        <time>2025-01-27T12:58:02.285Z</time>
      </trkpt>
      <trkpt lat="58.82118693552911" lon="16.310276985168457">
        <ele>84.71</ele>
        <time>2025-01-27T12:58:22.755Z</time>
      </trkpt>
      <trkpt lat="58.82113999687135" lon="16.31019593216479">
        <ele>85.04</ele>
        <time>2025-01-27T12:58:43.233Z</time>
      </trkpt>
      <trkpt lat="58.82106799632311" lon="16.310126949101686">
        <ele>85.37</ele>
        <time>2025-01-27T12:59:03.722Z</time>
      </trkpt>
      <trkpt lat="58.82085392251611" lon="16.309884963557124">
        <ele>85.71</ele>
        <time>2025-01-27T12:59:24.244Z</time>
      </trkpt>
      <trkpt lat="58.82071495056152" lon="16.30970793776214">
        <ele>85.97</ele>
        <time>2025-01-27T12:59:44.788Z</time>
      </trkpt>
      <trkpt lat="58.82060095667839" lon="16.309600984677672">
        <ele>86.24</ele>
        <time>2025-01-27T13:00:05.349Z</time>
      </trkpt>
      <trkpt lat="58.8204709533602" lon="16.309520937502384">
        <ele>86.52</ele>
        <time>2025-01-27T13:00:25.929Z</time>
      </trkpt>
      <trkpt lat="58.82034597918391" lon="16.30940292030573">
        <ele>86.79</ele>
        <time>2025-01-27T13:00:46.527Z</time>
      </trkpt>
      <trkpt lat="58.82025696337223" lon="16.30933796055615">
        <ele>87.02</ele>
        <time>2025-01-27T13:01:07.138Z</time>
      </trkpt>
      <trkpt lat="58.8202119525522" lon="16.309289932250977">
        <ele>87.23</ele>
        <time>2025-01-27T13:01:27.756Z</time>
      </trkpt>
      <trkpt lat="58.82008999586105" lon="16.30904291756451">
        <ele>87.44</ele>
        <time>2025-01-27T13:01:48.398Z</time>
      </trkpt>
      <trkpt lat="58.81992856040597" lon="16.308757765218616">
        <ele>87.61</ele>
        <time>2025-01-27T13:02:09.069Z</time>
      </trkpt>
      <trkpt lat="58.8197679631412" lon="16.308473953977227">
        <ele>87.75</ele>
        <time>2025-01-27T13:02:29.769Z</time>
      </trkpt>
      <trkpt lat="58.819603929296136" lon="16.308237919583917">
        <ele>87.85</ele>
        <time>2025-01-27T13:02:50.496Z</time>
      </trkpt>
      <trkpt lat="58.8194349501282" lon="16.308033987879753">
        <ele>87.89</ele>
        <time>2025-01-27T13:03:11.250Z</time>
      </trkpt>
      <trkpt lat="58.81929866038263" lon="16.30783248692751">
        <ele>87.84</ele>
        <time>2025-01-27T13:03:32.027Z</time>
      </trkpt>
      <trkpt lat="58.81916295737028" lon="16.307631991803646">
        <ele>87.77</ele>
        <time>2025-01-27T13:03:52.827Z</time>
      </trkpt>
      <trkpt lat="58.81905097514391" lon="16.30740693770349">
        <ele>87.7</ele>
        <time>2025-01-27T13:04:13.648Z</time>
      </trkpt>
      <trkpt lat="58.818934969604015" lon="16.307207951322198">
        <ele>87.57</ele>
        <time>2025-01-27T13:04:34.490Z</time>
      </trkpt>
      <trkpt lat="58.818806977942586" lon="16.30707995966077">
        <ele>87.39</ele>
        <time>2025-01-27T13:04:55.351Z</time>
      </trkpt>
      <trkpt lat="58.818720979616046" lon="16.30701499991119">
        <ele>87.19</ele>
        <time>2025-01-27T13:05:16.225Z</time>
      </trkpt>
      <trkpt lat="58.81864596158266" lon="16.307031931355596">
        <ele>87.0</ele>
        <time>2025-01-27T13:05:37.109Z</time>
      </trkpt>
      <trkpt lat="58.818528950214386" lon="16.307095969095826">
        <ele>86.81</ele>
        <time>2025-01-27T13:05:58.009Z</time>
      </trkpt>
      <trkpt lat="58.81843498907983" lon="16.307132933288813">
        <ele>86.59</ele>
        <time>2025-01-27T13:06:18.922Z</time>
      </trkpt>
      <trkpt lat="58.81834295578301" lon="16.307154977694154">
        <ele>86.34</ele>
        <time>2025-01-27T13:06:39.847Z</time>
      </trkpt>
      <trkpt lat="58.81824899464846" lon="16.30720895715058">
        <ele>86.07</ele>
        <time>2025-01-27T13:07:00.785Z</time>
      </trkpt>
      <trkpt lat="58.818137934431434" lon="16.307304929941893">
        <ele>85.79</ele>
        <time>2025-01-27T13:07:21.740Z</time>
      </trkpt>
      <trkpt lat="58.81802695803344" lon="16.30738598294556">
        <ele>85.52</ele>
        <time>2025-01-27T13:07:42.711Z</time>
      </trkpt>
      <trkpt lat="58.817903995513916" lon="16.307395957410336">
        <ele>85.25</ele>
        <time>2025-01-27T13:08:03.698Z</time>
      </trkpt>
      <trkpt lat="58.81773166358471" lon="16.30742847919464">
        <ele>84.95</ele>
        <time>2025-01-27T13:08:24.708Z</time>
      </trkpt>
      <trkpt lat="58.817559918388724" lon="16.307460917159915">
        <ele>84.69</ele>
        <time>2025-01-27T13:08:45.741Z</time>
      </trkpt>
      <trkpt lat="58.81745992228389" lon="16.30744499154389">
        <ele>84.5</ele>
        <time>2025-01-27T13:09:06.788Z</time>
      </trkpt>
      <trkpt lat="58.81737895309925" lon="16.307390928268433">
        <ele>84.34</ele>
        <time>2025-01-27T13:09:27.846Z</time>
      </trkpt>
      <trkpt lat="58.817298989742994" lon="16.307293949648738">
        <ele>84.22</ele>
        <time>2025-01-27T13:09:48.917Z</time>
      </trkpt>
      <trkpt lat="58.81724299862981" lon="16.307181967422366">
        <ele>84.15</ele>
        <time>2025-01-27T13:10:09.998Z</time>
      </trkpt>
      <trkpt lat="58.81719094701111" lon="16.30702095106244">
        <ele>84.13</ele>
        <time>2025-01-27T13:10:31.093Z</time>
      </trkpt>
      <trkpt lat="58.81715993396938" lon="16.306843925267458">
        <ele>84.15</ele>
        <time>2025-01-27T13:10:52.201Z</time>
      </trkpt>
      <trkpt lat="58.81714291870594" lon="16.306542931124568">
        <ele>84.18</ele>
        <time>2025-01-27T13:11:13.330Z</time>
      </trkpt>
      <trkpt lat="58.81716295145452" lon="16.306231962516904">
        <ele>84.24</ele>
        <time>2025-01-27T13:11:34.480Z</time>
      </trkpt>
      <trkpt lat="58.81714593619108" lon="16.305958963930607">
        <ele>84.29</ele>
        <time>2025-01-27T13:11:55.649Z</time>
      </trkpt>
      <trkpt lat="58.81710193119943" lon="16.305630980059505">
        <ele>84.32</ele>
        <time>2025-01-27T13:12:16.842Z</time>
      </trkpt>
      <trkpt lat="58.817040994763374" lon="16.305486978963017">
        <ele>84.33</ele>
        <time>2025-01-27T13:12:38.048Z</time>
      </trkpt>
      <trkpt lat="58.816956924274564" lon="16.305351946502924">
        <ele>84.35</ele>
        <time>2025-01-27T13:12:59.268Z</time>
      </trkpt>
      <trkpt lat="58.81683798506856" lon="16.30532395094633">
        <ele>84.35</ele>
        <time>2025-01-27T13:13:20.504Z</time>
      </trkpt>
      <trkpt lat="58.816825998947024" lon="16.304944921284914">
        <ele>84.38</ele>
        <time>2025-01-27T13:13:41.767Z</time>
      </trkpt>
      <trkpt lat="58.81678995676339" lon="16.304468996822834">
        <ele>84.34</ele>
        <time>2025-01-27T13:14:03.063Z</time>
      </trkpt>
      <trkpt lat="58.81674678996205" lon="16.304152915254235">
        <ele>84.36</ele>
        <time>2025-01-27T13:14:24.382Z</time>
      </trkpt>
      <trkpt lat="58.81670395843685" lon="16.30383892916143">
        <ele>84.4</ele>
        <time>2025-01-27T13:14:45.723Z</time>
      </trkpt>
      <trkpt lat="58.81661997176707" lon="16.303889974951744">
        <ele>84.44</ele>
        <time>2025-01-27T13:15:07.076Z</time>
      </trkpt>
      <trkpt lat="58.81648192182183" lon="16.303972955793142">
        <ele>84.49</ele>
        <time>2025-01-27T13:15:28.448Z</time>
      </trkpt>
      <trkpt lat="58.816196937114" lon="16.304027941077948">
        <ele>84.5</ele>
        <time>2025-01-27T13:15:49.859Z</time>
      </trkpt>
      <trkpt lat="58.81605092436075" lon="16.304084938019514">
        <ele>84.64</ele>
        <time>2025-01-27T13:16:11.290Z</time>
      </trkpt>
      <trkpt lat="58.81583106704056" lon="16.304224664345384">
        <ele>84.78</ele>
        <time>2025-01-27T13:16:32.751Z</time>
      </trkpt>
      <trkpt lat="58.81561196409166" lon="16.304363971576095">
        <ele>84.9</ele>
        <time>2025-01-27T13:16:54.243Z</time>
      </trkpt>
      <trkpt lat="58.81553594022989" lon="16.304435972124338">
        <ele>85.06</ele>
        <time>2025-01-27T13:17:15.747Z</time>
      </trkpt>
      <trkpt lat="58.815403170883656" lon="16.3046399038285">
        <ele>85.23</ele>
        <time>2025-01-27T13:17:37.273Z</time>
      </trkpt>
      <trkpt lat="58.81527098827064" lon="16.304842997342348">
        <ele>85.36</ele>
        <time>2025-01-27T13:17:58.822Z</time>
      </trkpt>
      <trkpt lat="58.81512489169836" lon="16.305148685351014">
        <ele>85.47</ele>
        <time>2025-01-27T13:18:20.400Z</time>
      </trkpt>
      <trkpt lat="58.8150985725224" lon="16.30520367063582">
        <ele>85.44</ele>
        <time>2025-01-27T13:18:41.983Z</time>
      </trkpt>
      <trkpt lat="58.81497887894511" lon="16.305454457178712">
        <ele>85.43</ele>
        <time>2025-01-27T13:19:03.590Z</time>
      </trkpt>
      <trkpt lat="58.814833955839276" lon="16.305757965892553">
        <ele>85.35</ele>
        <time>2025-01-27T13:19:25.225Z</time>
      </trkpt>
      <trkpt lat="58.81468693725765" lon="16.306023923680186">
        <ele>85.11</ele>
        <time>2025-01-27T13:19:46.887Z</time>
      </trkpt>
      <trkpt lat="58.814574955031276" lon="16.306192986667156">
        <ele>84.84</ele>
        <time>2025-01-27T13:20:08.568Z</time>
      </trkpt>
      <trkpt lat="58.81431804969907" lon="16.306393314152956">
        <ele>84.4</ele>
        <time>2025-01-27T13:20:30.286Z</time>
      </trkpt>
      <trkpt lat="58.81406198255718" lon="16.306592971086502">
        <ele>83.92</ele>
        <time>2025-01-27T13:20:52.041Z</time>
      </trkpt>
      <trkpt lat="58.813775489106774" lon="16.306773265823722">
        <ele>83.47</ele>
        <time>2025-01-27T13:21:13.836Z</time>
      </trkpt>
      <trkpt lat="58.81348991766572" lon="16.30695297382772">
        <ele>83.07</ele>
        <time>2025-01-27T13:21:35.672Z</time>
      </trkpt>
      <trkpt lat="58.81331498734653" lon="16.3071059435606">
        <ele>82.82</ele>
        <time>2025-01-27T13:21:57.533Z</time>
      </trkpt>
      <trkpt lat="58.81322798319161" lon="16.307214992120862">
        <ele>82.63</ele>
        <time>2025-01-27T13:22:19.408Z</time>
      </trkpt>
      <trkpt lat="58.81304198876023" lon="16.30753794685006">
        <ele>82.49</ele>
        <time>2025-01-27T13:22:41.317Z</time>
      </trkpt>
      <trkpt lat="58.81289899349213" lon="16.307841958478093">
        <ele>82.36</ele>
        <time>2025-01-27T13:23:03.254Z</time>
      </trkpt>
      <trkpt lat="58.81278592161834" lon="16.30813498981297">
        <ele>82.27</ele>
        <time>2025-01-27T13:23:25.216Z</time>
      </trkpt>
      <trkpt lat="58.812658935785294" lon="16.308409916236997">
        <ele>82.13</ele>
        <time>2025-01-27T13:23:47.204Z</time>
      </trkpt>
      <trkpt lat="58.81252197548747" lon="16.308734128251672">
        <ele>81.93</ele>
        <time>2025-01-27T13:24:09.221Z</time>
      </trkpt>
      <trkpt lat="58.812384931370616" lon="16.309058256447315">
        <ele>81.78</ele>
        <time>2025-01-27T13:24:31.267Z</time>
      </trkpt>
      <trkpt lat="58.812248976901174" lon="16.30937995389104">
        <ele>81.58</ele>
        <time>2025-01-27T13:24:53.342Z</time>
      </trkpt>
      <trkpt lat="58.81208796054125" lon="16.309736939147115">
        <ele>81.42</ele>
        <time>2025-01-27T13:25:15.449Z</time>
      </trkpt>
      <trkpt lat="58.81189098581672" lon="16.310132397338748">
        <ele>81.14</ele>
        <time>2025-01-27T13:25:37.594Z</time>
      </trkpt>
      <trkpt lat="58.811694933101535" lon="16.31052592769265">
        <ele>80.8</ele>
        <time>2025-01-27T13:25:59.777Z</time>
      </trkpt>
      <trkpt lat="58.81147096864879" lon="16.310448981821537">
        <ele>80.19</ele>
        <time>2025-01-27T13:26:21.991Z</time>
      </trkpt>
      <trkpt lat="58.811262929812074" lon="16.310335993766785">
        <ele>79.81</ele>
        <time>2025-01-27T13:26:44.234Z</time>
      </trkpt>
      <trkpt lat="58.811159916222095" lon="16.310319984331727">
        <ele>79.54</ele>
        <time>2025-01-27T13:27:06.490Z</time>
      </trkpt>
      <trkpt lat="58.8110819645226" lon="16.310362983494997">
        <ele>79.34</ele>
        <time>2025-01-27T13:27:28.757Z</time>
      </trkpt>
      <trkpt lat="58.8110129814595" lon="16.31043791770935">
        <ele>79.22</ele>
        <time>2025-01-27T13:27:51.035Z</time>
      </trkpt>
      <trkpt lat="58.81082698702812" lon="16.310770930722356">
        <ele>79.18</ele>
        <time>2025-01-27T13:28:13.347Z</time>
      </trkpt>
      <trkpt lat="58.81076294928789" lon="16.310871932655573">
        <ele>79.18</ele>
        <time>2025-01-27T13:28:35.670Z</time>
      </trkpt>
      <trkpt lat="58.81073168478906" lon="16.310913506895304">
        <ele>79.16</ele>
        <time>2025-01-27T13:28:57.998Z</time>
      </trkpt>
      <trkpt lat="58.81065398454666" lon="16.31101693958044">
        <ele>79.17</ele>
        <time>2025-01-27T13:29:20.339Z</time>
      </trkpt>
      <trkpt lat="58.81050394847989" lon="16.311188265681267">
        <ele>79.31</ele>
        <time>2025-01-27T13:29:42.703Z</time>
      </trkpt>
      <trkpt lat="58.81047796458006" lon="16.311217937618494">
        <ele>79.31</ele>
        <time>2025-01-27T13:30:05.071Z</time>
      </trkpt>
      <trkpt lat="58.810471929609776" lon="16.31122598424554">
        <ele>79.3</ele>
        <time>2025-01-27T13:30:27.440Z</time>
      </trkpt>
    </trkseg>
  </trk>
</gpx>
